<?xml version="1.0" encoding="UTF-8" standalone="no" ?>
<gpx xmlns="http://www.topografix.com/GPX/1/1" xmlns:xsi="http://www.w3.org/2001/XMLSchema-instance" xsi:schemaLocation="http://www.topografix.com/GPX/1/1 http://www.topografix.com/GPX/1/1/gpx.xsd" version="1.1" creator="VisuGPX - https://www.visugpx.com">
  <metadata>
    <name>83-V-2011-25-03-Bras-Le Tombereau-Pont St Sumian</name>
    <desc><![CDATA[Bras-Le Tombereau-Pont St Sumian
parJC.Pa.]]></desc>
  </metadata>
  <trk>
    <name><![CDATA[2011-03-25-Bras]]></name>
    <trkseg>
      <trkpt lat="43.4755" lon="5.9543">
        <ele>261.750854</ele>
        <time>2011-03-25T13:36:48Z</time>
      </trkpt>
      <trkpt lat="43.4755" lon="5.9543">
        <ele>261.916382</ele>
        <time>2011-03-25T13:36:49Z</time>
      </trkpt>
      <trkpt lat="43.47559" lon="5.95427">
        <ele>261.5</ele>
        <time>2011-03-25T13:38:16Z</time>
      </trkpt>
      <trkpt lat="43.47551" lon="5.95434">
        <ele>261.799988</ele>
        <time>2011-03-25T13:39:42Z</time>
      </trkpt>
      <trkpt lat="43.47537" lon="5.95447">
        <ele>262.299988</ele>
        <time>2011-03-25T13:40:09Z</time>
      </trkpt>
      <trkpt lat="43.47529" lon="5.95452">
        <ele>263.100006</ele>
        <time>2011-03-25T13:41:26Z</time>
      </trkpt>
      <trkpt lat="43.47528" lon="5.95452">
        <ele>263</ele>
        <time>2011-03-25T13:41:27Z</time>
      </trkpt>
      <trkpt lat="43.47516" lon="5.95467">
        <ele>263.399994</ele>
        <time>2011-03-25T13:41:48Z</time>
      </trkpt>
      <trkpt lat="43.47508" lon="5.95468">
        <ele>263.600006</ele>
        <time>2011-03-25T13:41:56Z</time>
      </trkpt>
      <trkpt lat="43.475" lon="5.95469">
        <ele>263.100006</ele>
        <time>2011-03-25T13:42:03Z</time>
      </trkpt>
      <trkpt lat="43.47491" lon="5.9547">
        <ele>263.100006</ele>
        <time>2011-03-25T13:42:11Z</time>
      </trkpt>
      <trkpt lat="43.47483" lon="5.95471">
        <ele>263.600006</ele>
        <time>2011-03-25T13:42:19Z</time>
      </trkpt>
      <trkpt lat="43.47475" lon="5.95471">
        <ele>263.700012</ele>
        <time>2011-03-25T13:42:27Z</time>
      </trkpt>
      <trkpt lat="43.47473" lon="5.95471">
        <ele>263.399994</ele>
        <time>2011-03-25T13:42:28Z</time>
      </trkpt>
      <trkpt lat="43.47459" lon="5.95468">
        <ele>262.700012</ele>
        <time>2011-03-25T13:42:41Z</time>
      </trkpt>
      <trkpt lat="43.4745" lon="5.95467">
        <ele>263</ele>
        <time>2011-03-25T13:42:49Z</time>
      </trkpt>
      <trkpt lat="43.47442" lon="5.95466">
        <ele>263.200012</ele>
        <time>2011-03-25T13:42:56Z</time>
      </trkpt>
      <trkpt lat="43.47433" lon="5.95465">
        <ele>263.100006</ele>
        <time>2011-03-25T13:43:04Z</time>
      </trkpt>
      <trkpt lat="43.47424" lon="5.95464">
        <ele>263.399994</ele>
        <time>2011-03-25T13:43:12Z</time>
      </trkpt>
      <trkpt lat="43.47416" lon="5.95461">
        <ele>263.5</ele>
        <time>2011-03-25T13:43:19Z</time>
      </trkpt>
      <trkpt lat="43.47408" lon="5.95458">
        <ele>263.700012</ele>
        <time>2011-03-25T13:43:25Z</time>
      </trkpt>
      <trkpt lat="43.474" lon="5.95454">
        <ele>263.700012</ele>
        <time>2011-03-25T13:43:32Z</time>
      </trkpt>
      <trkpt lat="43.47399" lon="5.95454">
        <ele>263.799988</ele>
        <time>2011-03-25T13:43:33Z</time>
      </trkpt>
      <trkpt lat="43.47384" lon="5.95445">
        <ele>264.299988</ele>
        <time>2011-03-25T13:43:49Z</time>
      </trkpt>
      <trkpt lat="43.47376" lon="5.9544">
        <ele>264.100006</ele>
        <time>2011-03-25T13:43:57Z</time>
      </trkpt>
      <trkpt lat="43.47369" lon="5.95436">
        <ele>264.899994</ele>
        <time>2011-03-25T13:44:04Z</time>
      </trkpt>
      <trkpt lat="43.47361" lon="5.95431">
        <ele>264.600006</ele>
        <time>2011-03-25T13:44:11Z</time>
      </trkpt>
      <trkpt lat="43.47354" lon="5.95428">
        <ele>264.700012</ele>
        <time>2011-03-25T13:44:17Z</time>
      </trkpt>
      <trkpt lat="43.47346" lon="5.95423">
        <ele>264.600006</ele>
        <time>2011-03-25T13:44:24Z</time>
      </trkpt>
      <trkpt lat="43.47338" lon="5.95419">
        <ele>265.100006</ele>
        <time>2011-03-25T13:44:32Z</time>
      </trkpt>
      <trkpt lat="43.4733" lon="5.95415">
        <ele>265.5</ele>
        <time>2011-03-25T13:44:39Z</time>
      </trkpt>
      <trkpt lat="43.47329" lon="5.95415">
        <ele>265.5</ele>
        <time>2011-03-25T13:44:40Z</time>
      </trkpt>
      <trkpt lat="43.47315" lon="5.95408">
        <ele>266.200012</ele>
        <time>2011-03-25T13:44:54Z</time>
      </trkpt>
      <trkpt lat="43.47307" lon="5.95405">
        <ele>266.899994</ele>
        <time>2011-03-25T13:45:02Z</time>
      </trkpt>
      <trkpt lat="43.47299" lon="5.95401">
        <ele>267.799988</ele>
        <time>2011-03-25T13:45:10Z</time>
      </trkpt>
      <trkpt lat="43.47291" lon="5.95395">
        <ele>269.100006</ele>
        <time>2011-03-25T13:45:20Z</time>
      </trkpt>
      <trkpt lat="43.47284" lon="5.95388">
        <ele>270.100006</ele>
        <time>2011-03-25T13:45:28Z</time>
      </trkpt>
      <trkpt lat="43.47276" lon="5.95383">
        <ele>271.399994</ele>
        <time>2011-03-25T13:45:37Z</time>
      </trkpt>
      <trkpt lat="43.47269" lon="5.95376">
        <ele>272.299988</ele>
        <time>2011-03-25T13:45:45Z</time>
      </trkpt>
      <trkpt lat="43.47269" lon="5.95375">
        <ele>272.5</ele>
        <time>2011-03-25T13:45:46Z</time>
      </trkpt>
      <trkpt lat="43.47256" lon="5.95362">
        <ele>274.799988</ele>
        <time>2011-03-25T13:46:01Z</time>
      </trkpt>
      <trkpt lat="43.47252" lon="5.95351">
        <ele>276.399994</ele>
        <time>2011-03-25T13:46:16Z</time>
      </trkpt>
      <trkpt lat="43.47258" lon="5.95343">
        <ele>277.600006</ele>
        <time>2011-03-25T13:46:26Z</time>
      </trkpt>
      <trkpt lat="43.47264" lon="5.95335">
        <ele>279.100006</ele>
        <time>2011-03-25T13:46:40Z</time>
      </trkpt>
      <trkpt lat="43.47272" lon="5.95332">
        <ele>281.299988</ele>
        <time>2011-03-25T13:46:54Z</time>
      </trkpt>
      <trkpt lat="43.47273" lon="5.95332">
        <ele>281.399994</ele>
        <time>2011-03-25T13:46:55Z</time>
      </trkpt>
      <trkpt lat="43.47289" lon="5.95334">
        <ele>285.799988</ele>
        <time>2011-03-25T13:47:18Z</time>
      </trkpt>
      <trkpt lat="43.47297" lon="5.95328">
        <ele>289.399994</ele>
        <time>2011-03-25T13:47:37Z</time>
      </trkpt>
      <trkpt lat="43.47292" lon="5.95319">
        <ele>290.299988</ele>
        <time>2011-03-25T13:48:09Z</time>
      </trkpt>
      <trkpt lat="43.47292" lon="5.95319">
        <ele>290.299988</ele>
        <time>2011-03-25T13:48:10Z</time>
      </trkpt>
      <trkpt lat="43.47289" lon="5.95299">
        <ele>292.600006</ele>
        <time>2011-03-25T13:48:53Z</time>
      </trkpt>
      <trkpt lat="43.47298" lon="5.953">
        <ele>293.600006</ele>
        <time>2011-03-25T13:50:37Z</time>
      </trkpt>
      <trkpt lat="43.47298" lon="5.953">
        <ele>293.799988</ele>
        <time>2011-03-25T13:50:38Z</time>
      </trkpt>
      <trkpt lat="43.47313" lon="5.95291">
        <ele>296</ele>
        <time>2011-03-25T13:51:01Z</time>
      </trkpt>
      <trkpt lat="43.47321" lon="5.95288">
        <ele>296.799988</ele>
        <time>2011-03-25T13:51:11Z</time>
      </trkpt>
      <trkpt lat="43.47329" lon="5.95285">
        <ele>297.799988</ele>
        <time>2011-03-25T13:51:22Z</time>
      </trkpt>
      <trkpt lat="43.47338" lon="5.95284">
        <ele>298.899994</ele>
        <time>2011-03-25T13:51:33Z</time>
      </trkpt>
      <trkpt lat="43.47346" lon="5.95279">
        <ele>300.700012</ele>
        <time>2011-03-25T13:51:46Z</time>
      </trkpt>
      <trkpt lat="43.47347" lon="5.95278">
        <ele>301</ele>
        <time>2011-03-25T13:51:47Z</time>
      </trkpt>
      <trkpt lat="43.47362" lon="5.95271">
        <ele>304.200012</ele>
        <time>2011-03-25T13:52:16Z</time>
      </trkpt>
      <trkpt lat="43.47371" lon="5.9527">
        <ele>306.200012</ele>
        <time>2011-03-25T13:52:30Z</time>
      </trkpt>
      <trkpt lat="43.4738" lon="5.95269">
        <ele>308.299988</ele>
        <time>2011-03-25T13:52:44Z</time>
      </trkpt>
      <trkpt lat="43.47387" lon="5.95265">
        <ele>310.799988</ele>
        <time>2011-03-25T13:52:59Z</time>
      </trkpt>
      <trkpt lat="43.47388" lon="5.95265">
        <ele>311</ele>
        <time>2011-03-25T13:53:00Z</time>
      </trkpt>
      <trkpt lat="43.47405" lon="5.95263">
        <ele>315.100006</ele>
        <time>2011-03-25T13:55:19Z</time>
      </trkpt>
      <trkpt lat="43.47405" lon="5.95262">
        <ele>315.100006</ele>
        <time>2011-03-25T13:55:20Z</time>
      </trkpt>
      <trkpt lat="43.47423" lon="5.95261">
        <ele>317.200012</ele>
        <time>2011-03-25T13:55:55Z</time>
      </trkpt>
      <trkpt lat="43.47431" lon="5.95264">
        <ele>318.399994</ele>
        <time>2011-03-25T13:56:19Z</time>
      </trkpt>
      <trkpt lat="43.47439" lon="5.95264">
        <ele>318.5</ele>
        <time>2011-03-25T13:56:45Z</time>
      </trkpt>
      <trkpt lat="43.4744" lon="5.95263">
        <ele>318.600006</ele>
        <time>2011-03-25T13:56:46Z</time>
      </trkpt>
      <trkpt lat="43.47454" lon="5.95251">
        <ele>318.5</ele>
        <time>2011-03-25T13:57:38Z</time>
      </trkpt>
      <trkpt lat="43.47455" lon="5.95239">
        <ele>318.399994</ele>
        <time>2011-03-25T13:58:21Z</time>
      </trkpt>
      <trkpt lat="43.47455" lon="5.95239">
        <ele>318.399994</ele>
        <time>2011-03-25T13:58:22Z</time>
      </trkpt>
      <trkpt lat="43.4747" lon="5.95229">
        <ele>320.799988</ele>
        <time>2011-03-25T13:58:54Z</time>
      </trkpt>
      <trkpt lat="43.47478" lon="5.95226">
        <ele>320.700012</ele>
        <time>2011-03-25T13:59:09Z</time>
      </trkpt>
      <trkpt lat="43.47484" lon="5.95218">
        <ele>320.5</ele>
        <time>2011-03-25T13:59:19Z</time>
      </trkpt>
      <trkpt lat="43.47491" lon="5.9521">
        <ele>319.5</ele>
        <time>2011-03-25T13:59:35Z</time>
      </trkpt>
      <trkpt lat="43.47491" lon="5.95209">
        <ele>319.399994</ele>
        <time>2011-03-25T13:59:36Z</time>
      </trkpt>
      <trkpt lat="43.47508" lon="5.95209">
        <ele>314.799988</ele>
        <time>2011-03-25T14:00:24Z</time>
      </trkpt>
      <trkpt lat="43.47514" lon="5.95201">
        <ele>313.899994</ele>
        <time>2011-03-25T14:00:40Z</time>
      </trkpt>
      <trkpt lat="43.47515" lon="5.95201">
        <ele>313.700012</ele>
        <time>2011-03-25T14:00:41Z</time>
      </trkpt>
      <trkpt lat="43.47531" lon="5.95204">
        <ele>310.899994</ele>
        <time>2011-03-25T14:01:16Z</time>
      </trkpt>
      <trkpt lat="43.4754" lon="5.95203">
        <ele>309.700012</ele>
        <time>2011-03-25T14:01:31Z</time>
      </trkpt>
      <trkpt lat="43.47548" lon="5.952">
        <ele>307.899994</ele>
        <time>2011-03-25T14:01:47Z</time>
      </trkpt>
      <trkpt lat="43.4755" lon="5.952">
        <ele>307.799988</ele>
        <time>2011-03-25T14:01:48Z</time>
      </trkpt>
      <trkpt lat="43.47566" lon="5.95197">
        <ele>306</ele>
        <time>2011-03-25T14:02:08Z</time>
      </trkpt>
      <trkpt lat="43.47574" lon="5.95199">
        <ele>305.299988</ele>
        <time>2011-03-25T14:02:17Z</time>
      </trkpt>
      <trkpt lat="43.47582" lon="5.95204">
        <ele>303.600006</ele>
        <time>2011-03-25T14:02:31Z</time>
      </trkpt>
      <trkpt lat="43.47591" lon="5.95205">
        <ele>302</ele>
        <time>2011-03-25T14:02:45Z</time>
      </trkpt>
      <trkpt lat="43.476" lon="5.95207">
        <ele>300.700012</ele>
        <time>2011-03-25T14:02:59Z</time>
      </trkpt>
      <trkpt lat="43.47601" lon="5.95207">
        <ele>300.799988</ele>
        <time>2011-03-25T14:03:00Z</time>
      </trkpt>
      <trkpt lat="43.47617" lon="5.95207">
        <ele>298.700012</ele>
        <time>2011-03-25T14:03:30Z</time>
      </trkpt>
      <trkpt lat="43.47626" lon="5.95209">
        <ele>296.899994</ele>
        <time>2011-03-25T14:03:45Z</time>
      </trkpt>
      <trkpt lat="43.47635" lon="5.95206">
        <ele>296.399994</ele>
        <time>2011-03-25T14:04:08Z</time>
      </trkpt>
      <trkpt lat="43.47635" lon="5.95206">
        <ele>296.200012</ele>
        <time>2011-03-25T14:04:09Z</time>
      </trkpt>
      <trkpt lat="43.47652" lon="5.95205">
        <ele>293</ele>
        <time>2011-03-25T14:04:40Z</time>
      </trkpt>
      <trkpt lat="43.4766" lon="5.95207">
        <ele>290.799988</ele>
        <time>2011-03-25T14:04:51Z</time>
      </trkpt>
      <trkpt lat="43.47669" lon="5.95209">
        <ele>289.399994</ele>
        <time>2011-03-25T14:05:03Z</time>
      </trkpt>
      <trkpt lat="43.47677" lon="5.95212">
        <ele>287.200012</ele>
        <time>2011-03-25T14:05:15Z</time>
      </trkpt>
      <trkpt lat="43.47677" lon="5.95213">
        <ele>287.100006</ele>
        <time>2011-03-25T14:05:16Z</time>
      </trkpt>
      <trkpt lat="43.47694" lon="5.95215">
        <ele>283.100006</ele>
        <time>2011-03-25T14:05:38Z</time>
      </trkpt>
      <trkpt lat="43.47702" lon="5.95215">
        <ele>279.899994</ele>
        <time>2011-03-25T14:05:54Z</time>
      </trkpt>
      <trkpt lat="43.47711" lon="5.95217">
        <ele>277.399994</ele>
        <time>2011-03-25T14:06:06Z</time>
      </trkpt>
      <trkpt lat="43.47719" lon="5.95223">
        <ele>274.799988</ele>
        <time>2011-03-25T14:06:23Z</time>
      </trkpt>
      <trkpt lat="43.47719" lon="5.95223">
        <ele>274.5</ele>
        <time>2011-03-25T14:06:24Z</time>
      </trkpt>
      <trkpt lat="43.47736" lon="5.95224">
        <ele>270.399994</ele>
        <time>2011-03-25T14:06:55Z</time>
      </trkpt>
      <trkpt lat="43.47744" lon="5.95225">
        <ele>269.200012</ele>
        <time>2011-03-25T14:07:19Z</time>
      </trkpt>
      <trkpt lat="43.47752" lon="5.95228">
        <ele>266.799988</ele>
        <time>2011-03-25T14:07:40Z</time>
      </trkpt>
      <trkpt lat="43.47753" lon="5.95229">
        <ele>266.600006</ele>
        <time>2011-03-25T14:07:41Z</time>
      </trkpt>
      <trkpt lat="43.47767" lon="5.95229">
        <ele>263.200012</ele>
        <time>2011-03-25T14:08:09Z</time>
      </trkpt>
      <trkpt lat="43.47772" lon="5.95239">
        <ele>262.600006</ele>
        <time>2011-03-25T14:08:18Z</time>
      </trkpt>
      <trkpt lat="43.47774" lon="5.9525">
        <ele>262</ele>
        <time>2011-03-25T14:08:27Z</time>
      </trkpt>
      <trkpt lat="43.47775" lon="5.95261">
        <ele>261.799988</ele>
        <time>2011-03-25T14:08:35Z</time>
      </trkpt>
      <trkpt lat="43.47778" lon="5.95272">
        <ele>261.700012</ele>
        <time>2011-03-25T14:08:43Z</time>
      </trkpt>
      <trkpt lat="43.47778" lon="5.95273">
        <ele>261.799988</ele>
        <time>2011-03-25T14:08:44Z</time>
      </trkpt>
      <trkpt lat="43.47787" lon="5.95289">
        <ele>262.399994</ele>
        <time>2011-03-25T14:09:10Z</time>
      </trkpt>
      <trkpt lat="43.47796" lon="5.95287">
        <ele>262.100006</ele>
        <time>2011-03-25T14:13:25Z</time>
      </trkpt>
      <trkpt lat="43.47797" lon="5.95287">
        <ele>262.200012</ele>
        <time>2011-03-25T14:13:26Z</time>
      </trkpt>
      <trkpt lat="43.4781" lon="5.95276">
        <ele>262.399994</ele>
        <time>2011-03-25T14:13:40Z</time>
      </trkpt>
      <trkpt lat="43.47817" lon="5.9527">
        <ele>262.600006</ele>
        <time>2011-03-25T14:13:48Z</time>
      </trkpt>
      <trkpt lat="43.47823" lon="5.95263">
        <ele>262.299988</ele>
        <time>2011-03-25T14:13:56Z</time>
      </trkpt>
      <trkpt lat="43.47829" lon="5.95253">
        <ele>262.299988</ele>
        <time>2011-03-25T14:14:04Z</time>
      </trkpt>
      <trkpt lat="43.47834" lon="5.95245">
        <ele>262.299988</ele>
        <time>2011-03-25T14:14:11Z</time>
      </trkpt>
      <trkpt lat="43.47839" lon="5.95236">
        <ele>262.399994</ele>
        <time>2011-03-25T14:14:21Z</time>
      </trkpt>
      <trkpt lat="43.47843" lon="5.95225">
        <ele>262.399994</ele>
        <time>2011-03-25T14:14:29Z</time>
      </trkpt>
      <trkpt lat="43.47844" lon="5.95223">
        <ele>262.200012</ele>
        <time>2011-03-25T14:14:30Z</time>
      </trkpt>
      <trkpt lat="43.47848" lon="5.95201">
        <ele>262.399994</ele>
        <time>2011-03-25T14:14:46Z</time>
      </trkpt>
      <trkpt lat="43.47849" lon="5.9519">
        <ele>262.200012</ele>
        <time>2011-03-25T14:14:52Z</time>
      </trkpt>
      <trkpt lat="43.47849" lon="5.95179">
        <ele>262.200012</ele>
        <time>2011-03-25T14:14:58Z</time>
      </trkpt>
      <trkpt lat="43.47849" lon="5.95168">
        <ele>262.100006</ele>
        <time>2011-03-25T14:15:05Z</time>
      </trkpt>
      <trkpt lat="43.4785" lon="5.95156">
        <ele>262.200012</ele>
        <time>2011-03-25T14:15:12Z</time>
      </trkpt>
      <trkpt lat="43.47851" lon="5.95146">
        <ele>261.799988</ele>
        <time>2011-03-25T14:15:18Z</time>
      </trkpt>
      <trkpt lat="43.47852" lon="5.95134">
        <ele>262.299988</ele>
        <time>2011-03-25T14:15:24Z</time>
      </trkpt>
      <trkpt lat="43.47853" lon="5.95123">
        <ele>262.100006</ele>
        <time>2011-03-25T14:15:31Z</time>
      </trkpt>
      <trkpt lat="43.47853" lon="5.95122">
        <ele>262</ele>
        <time>2011-03-25T14:15:32Z</time>
      </trkpt>
      <trkpt lat="43.47856" lon="5.951">
        <ele>262.399994</ele>
        <time>2011-03-25T14:15:46Z</time>
      </trkpt>
      <trkpt lat="43.47856" lon="5.95088">
        <ele>262.200012</ele>
        <time>2011-03-25T14:15:53Z</time>
      </trkpt>
      <trkpt lat="43.47858" lon="5.95077">
        <ele>262.399994</ele>
        <time>2011-03-25T14:16:01Z</time>
      </trkpt>
      <trkpt lat="43.47861" lon="5.95066">
        <ele>262.399994</ele>
        <time>2011-03-25T14:16:10Z</time>
      </trkpt>
      <trkpt lat="43.47869" lon="5.95063">
        <ele>262.399994</ele>
        <time>2011-03-25T14:16:22Z</time>
      </trkpt>
      <trkpt lat="43.47878" lon="5.95064">
        <ele>262.100006</ele>
        <time>2011-03-25T14:16:41Z</time>
      </trkpt>
      <trkpt lat="43.47879" lon="5.95064">
        <ele>262.200012</ele>
        <time>2011-03-25T14:16:42Z</time>
      </trkpt>
      <trkpt lat="43.47894" lon="5.9507">
        <ele>262.299988</ele>
        <time>2011-03-25T14:17:00Z</time>
      </trkpt>
      <trkpt lat="43.47903" lon="5.95071">
        <ele>262.299988</ele>
        <time>2011-03-25T14:17:10Z</time>
      </trkpt>
      <trkpt lat="43.47911" lon="5.95072">
        <ele>262.5</ele>
        <time>2011-03-25T14:17:19Z</time>
      </trkpt>
      <trkpt lat="43.4792" lon="5.95072">
        <ele>262.399994</ele>
        <time>2011-03-25T14:17:27Z</time>
      </trkpt>
      <trkpt lat="43.47928" lon="5.95072">
        <ele>262.399994</ele>
        <time>2011-03-25T14:17:34Z</time>
      </trkpt>
      <trkpt lat="43.47936" lon="5.95071">
        <ele>262.700012</ele>
        <time>2011-03-25T14:17:42Z</time>
      </trkpt>
      <trkpt lat="43.47937" lon="5.95072">
        <ele>262.600006</ele>
        <time>2011-03-25T14:17:43Z</time>
      </trkpt>
      <trkpt lat="43.47945" lon="5.95076">
        <ele>262.600006</ele>
        <time>2011-03-25T14:18:49Z</time>
      </trkpt>
      <trkpt lat="43.47961" lon="5.95076">
        <ele>262.5</ele>
        <time>2011-03-25T14:19:06Z</time>
      </trkpt>
      <trkpt lat="43.47969" lon="5.95081">
        <ele>262.399994</ele>
        <time>2011-03-25T14:19:14Z</time>
      </trkpt>
      <trkpt lat="43.47977" lon="5.95086">
        <ele>262.700012</ele>
        <time>2011-03-25T14:19:22Z</time>
      </trkpt>
      <trkpt lat="43.47984" lon="5.95092">
        <ele>262.700012</ele>
        <time>2011-03-25T14:19:31Z</time>
      </trkpt>
      <trkpt lat="43.47991" lon="5.95097">
        <ele>262.5</ele>
        <time>2011-03-25T14:19:38Z</time>
      </trkpt>
      <trkpt lat="43.47998" lon="5.95102">
        <ele>262.799988</ele>
        <time>2011-03-25T14:19:46Z</time>
      </trkpt>
      <trkpt lat="43.48005" lon="5.95108">
        <ele>262.899994</ele>
        <time>2011-03-25T14:19:52Z</time>
      </trkpt>
      <trkpt lat="43.48006" lon="5.95109">
        <ele>262.799988</ele>
        <time>2011-03-25T14:19:53Z</time>
      </trkpt>
      <trkpt lat="43.4802" lon="5.95117">
        <ele>262.700012</ele>
        <time>2011-03-25T14:20:07Z</time>
      </trkpt>
      <trkpt lat="43.48029" lon="5.95117">
        <ele>262.5</ele>
        <time>2011-03-25T14:20:18Z</time>
      </trkpt>
      <trkpt lat="43.48037" lon="5.95118">
        <ele>262.399994</ele>
        <time>2011-03-25T14:20:27Z</time>
      </trkpt>
      <trkpt lat="43.48046" lon="5.95117">
        <ele>262.799988</ele>
        <time>2011-03-25T14:20:37Z</time>
      </trkpt>
      <trkpt lat="43.48054" lon="5.95115">
        <ele>262.899994</ele>
        <time>2011-03-25T14:20:46Z</time>
      </trkpt>
      <trkpt lat="43.48062" lon="5.95114">
        <ele>262.899994</ele>
        <time>2011-03-25T14:20:53Z</time>
      </trkpt>
      <trkpt lat="43.48063" lon="5.95114">
        <ele>262.899994</ele>
        <time>2011-03-25T14:20:54Z</time>
      </trkpt>
      <trkpt lat="43.4808" lon="5.9511">
        <ele>263.299988</ele>
        <time>2011-03-25T14:21:10Z</time>
      </trkpt>
      <trkpt lat="43.48088" lon="5.95109">
        <ele>263.100006</ele>
        <time>2011-03-25T14:21:17Z</time>
      </trkpt>
      <trkpt lat="43.48095" lon="5.95107">
        <ele>263.100006</ele>
        <time>2011-03-25T14:21:23Z</time>
      </trkpt>
      <trkpt lat="43.48103" lon="5.95106">
        <ele>263.200012</ele>
        <time>2011-03-25T14:21:29Z</time>
      </trkpt>
      <trkpt lat="43.4811" lon="5.95103">
        <ele>263</ele>
        <time>2011-03-25T14:21:35Z</time>
      </trkpt>
      <trkpt lat="43.48118" lon="5.95097">
        <ele>262.5</ele>
        <time>2011-03-25T14:21:42Z</time>
      </trkpt>
      <trkpt lat="43.48125" lon="5.95091">
        <ele>262.600006</ele>
        <time>2011-03-25T14:21:49Z</time>
      </trkpt>
      <trkpt lat="43.48134" lon="5.95086">
        <ele>263.100006</ele>
        <time>2011-03-25T14:21:59Z</time>
      </trkpt>
      <trkpt lat="43.48135" lon="5.95085">
        <ele>263.100006</ele>
        <time>2011-03-25T14:22:00Z</time>
      </trkpt>
      <trkpt lat="43.4815" lon="5.95086">
        <ele>263.100006</ele>
        <time>2011-03-25T14:22:13Z</time>
      </trkpt>
      <trkpt lat="43.48158" lon="5.95088">
        <ele>262.899994</ele>
        <time>2011-03-25T14:22:20Z</time>
      </trkpt>
      <trkpt lat="43.48167" lon="5.9509">
        <ele>262.799988</ele>
        <time>2011-03-25T14:22:27Z</time>
      </trkpt>
      <trkpt lat="43.48175" lon="5.95091">
        <ele>262.600006</ele>
        <time>2011-03-25T14:22:35Z</time>
      </trkpt>
      <trkpt lat="43.48183" lon="5.95094">
        <ele>263</ele>
        <time>2011-03-25T14:22:43Z</time>
      </trkpt>
      <trkpt lat="43.48191" lon="5.95094">
        <ele>262.700012</ele>
        <time>2011-03-25T14:22:50Z</time>
      </trkpt>
      <trkpt lat="43.482" lon="5.95093">
        <ele>262.600006</ele>
        <time>2011-03-25T14:22:57Z</time>
      </trkpt>
      <trkpt lat="43.48208" lon="5.9509">
        <ele>263</ele>
        <time>2011-03-25T14:23:04Z</time>
      </trkpt>
      <trkpt lat="43.48209" lon="5.9509">
        <ele>263.200012</ele>
        <time>2011-03-25T14:23:05Z</time>
      </trkpt>
      <trkpt lat="43.48225" lon="5.95084">
        <ele>263.200012</ele>
        <time>2011-03-25T14:23:20Z</time>
      </trkpt>
      <trkpt lat="43.48233" lon="5.95081">
        <ele>262.799988</ele>
        <time>2011-03-25T14:23:27Z</time>
      </trkpt>
      <trkpt lat="43.48241" lon="5.95078">
        <ele>262.799988</ele>
        <time>2011-03-25T14:23:34Z</time>
      </trkpt>
      <trkpt lat="43.48249" lon="5.95073">
        <ele>262.700012</ele>
        <time>2011-03-25T14:23:42Z</time>
      </trkpt>
      <trkpt lat="43.48257" lon="5.95069">
        <ele>262.799988</ele>
        <time>2011-03-25T14:23:49Z</time>
      </trkpt>
      <trkpt lat="43.48265" lon="5.95065">
        <ele>262.899994</ele>
        <time>2011-03-25T14:23:56Z</time>
      </trkpt>
      <trkpt lat="43.48274" lon="5.95061">
        <ele>263</ele>
        <time>2011-03-25T14:24:04Z</time>
      </trkpt>
      <trkpt lat="43.48282" lon="5.95058">
        <ele>263.100006</ele>
        <time>2011-03-25T14:24:11Z</time>
      </trkpt>
      <trkpt lat="43.48283" lon="5.95057">
        <ele>263.100006</ele>
        <time>2011-03-25T14:24:12Z</time>
      </trkpt>
      <trkpt lat="43.48297" lon="5.95058">
        <ele>262.700012</ele>
        <time>2011-03-25T14:24:23Z</time>
      </trkpt>
      <trkpt lat="43.48305" lon="5.95063">
        <ele>262.899994</ele>
        <time>2011-03-25T14:24:29Z</time>
      </trkpt>
      <trkpt lat="43.48312" lon="5.95069">
        <ele>262.899994</ele>
        <time>2011-03-25T14:24:36Z</time>
      </trkpt>
      <trkpt lat="43.4832" lon="5.95073">
        <ele>262.399994</ele>
        <time>2011-03-25T14:24:45Z</time>
      </trkpt>
      <trkpt lat="43.48328" lon="5.95075">
        <ele>261.799988</ele>
        <time>2011-03-25T14:24:54Z</time>
      </trkpt>
      <trkpt lat="43.48337" lon="5.95074">
        <ele>261</ele>
        <time>2011-03-25T14:25:03Z</time>
      </trkpt>
      <trkpt lat="43.48345" lon="5.95072">
        <ele>260.899994</ele>
        <time>2011-03-25T14:25:10Z</time>
      </trkpt>
      <trkpt lat="43.48353" lon="5.9507">
        <ele>260.399994</ele>
        <time>2011-03-25T14:25:18Z</time>
      </trkpt>
      <trkpt lat="43.48354" lon="5.95069">
        <ele>260.299988</ele>
        <time>2011-03-25T14:25:19Z</time>
      </trkpt>
      <trkpt lat="43.48368" lon="5.95061">
        <ele>260.799988</ele>
        <time>2011-03-25T14:25:34Z</time>
      </trkpt>
      <trkpt lat="43.48377" lon="5.95057">
        <ele>260.899994</ele>
        <time>2011-03-25T14:25:42Z</time>
      </trkpt>
      <trkpt lat="43.48385" lon="5.95054">
        <ele>261</ele>
        <time>2011-03-25T14:25:49Z</time>
      </trkpt>
      <trkpt lat="43.48394" lon="5.95052">
        <ele>260.899994</ele>
        <time>2011-03-25T14:25:59Z</time>
      </trkpt>
      <trkpt lat="43.48401" lon="5.95055">
        <ele>261.100006</ele>
        <time>2011-03-25T14:26:07Z</time>
      </trkpt>
      <trkpt lat="43.48409" lon="5.95058">
        <ele>261.399994</ele>
        <time>2011-03-25T14:26:13Z</time>
      </trkpt>
      <trkpt lat="43.48417" lon="5.9506">
        <ele>260.600006</ele>
        <time>2011-03-25T14:26:21Z</time>
      </trkpt>
      <trkpt lat="43.48418" lon="5.9506">
        <ele>260.700012</ele>
        <time>2011-03-25T14:26:22Z</time>
      </trkpt>
      <trkpt lat="43.48434" lon="5.95064">
        <ele>260.899994</ele>
        <time>2011-03-25T14:26:40Z</time>
      </trkpt>
      <trkpt lat="43.48442" lon="5.95065">
        <ele>260.799988</ele>
        <time>2011-03-25T14:26:51Z</time>
      </trkpt>
      <trkpt lat="43.48451" lon="5.95066">
        <ele>260.799988</ele>
        <time>2011-03-25T14:27:02Z</time>
      </trkpt>
      <trkpt lat="43.4846" lon="5.95069">
        <ele>260.700012</ele>
        <time>2011-03-25T14:27:13Z</time>
      </trkpt>
      <trkpt lat="43.48468" lon="5.95071">
        <ele>261</ele>
        <time>2011-03-25T14:27:24Z</time>
      </trkpt>
      <trkpt lat="43.48469" lon="5.95071">
        <ele>260.899994</ele>
        <time>2011-03-25T14:27:25Z</time>
      </trkpt>
      <trkpt lat="43.48485" lon="5.95068">
        <ele>261.399994</ele>
        <time>2011-03-25T14:27:41Z</time>
      </trkpt>
      <trkpt lat="43.48493" lon="5.95068">
        <ele>261.799988</ele>
        <time>2011-03-25T14:27:49Z</time>
      </trkpt>
      <trkpt lat="43.48501" lon="5.95067">
        <ele>261.799988</ele>
        <time>2011-03-25T14:27:57Z</time>
      </trkpt>
      <trkpt lat="43.48509" lon="5.95066">
        <ele>262.200012</ele>
        <time>2011-03-25T14:28:05Z</time>
      </trkpt>
      <trkpt lat="43.48517" lon="5.95067">
        <ele>262.200012</ele>
        <time>2011-03-25T14:28:14Z</time>
      </trkpt>
      <trkpt lat="43.48526" lon="5.95066">
        <ele>262.399994</ele>
        <time>2011-03-25T14:28:21Z</time>
      </trkpt>
      <trkpt lat="43.48534" lon="5.95067">
        <ele>262.200012</ele>
        <time>2011-03-25T14:28:30Z</time>
      </trkpt>
      <trkpt lat="43.48535" lon="5.95068">
        <ele>262.299988</ele>
        <time>2011-03-25T14:28:31Z</time>
      </trkpt>
      <trkpt lat="43.48551" lon="5.95072">
        <ele>262.899994</ele>
        <time>2011-03-25T14:28:47Z</time>
      </trkpt>
      <trkpt lat="43.4856" lon="5.95073">
        <ele>263</ele>
        <time>2011-03-25T14:28:55Z</time>
      </trkpt>
      <trkpt lat="43.48568" lon="5.95072">
        <ele>262.799988</ele>
        <time>2011-03-25T14:29:02Z</time>
      </trkpt>
      <trkpt lat="43.48576" lon="5.95069">
        <ele>262.399994</ele>
        <time>2011-03-25T14:29:11Z</time>
      </trkpt>
      <trkpt lat="43.48584" lon="5.95068">
        <ele>262.399994</ele>
        <time>2011-03-25T14:29:18Z</time>
      </trkpt>
      <trkpt lat="43.48592" lon="5.95066">
        <ele>262</ele>
        <time>2011-03-25T14:29:25Z</time>
      </trkpt>
      <trkpt lat="43.486" lon="5.95063">
        <ele>261.600006</ele>
        <time>2011-03-25T14:29:33Z</time>
      </trkpt>
      <trkpt lat="43.48601" lon="5.95063">
        <ele>261.399994</ele>
        <time>2011-03-25T14:29:34Z</time>
      </trkpt>
      <trkpt lat="43.48617" lon="5.95063">
        <ele>261.399994</ele>
        <time>2011-03-25T14:29:47Z</time>
      </trkpt>
      <trkpt lat="43.48625" lon="5.95062">
        <ele>261</ele>
        <time>2011-03-25T14:29:55Z</time>
      </trkpt>
      <trkpt lat="43.48633" lon="5.95062">
        <ele>260.899994</ele>
        <time>2011-03-25T14:30:02Z</time>
      </trkpt>
      <trkpt lat="43.48642" lon="5.95063">
        <ele>260.600006</ele>
        <time>2011-03-25T14:30:09Z</time>
      </trkpt>
      <trkpt lat="43.4865" lon="5.95062">
        <ele>260.600006</ele>
        <time>2011-03-25T14:30:18Z</time>
      </trkpt>
      <trkpt lat="43.48658" lon="5.9506">
        <ele>260.799988</ele>
        <time>2011-03-25T14:30:25Z</time>
      </trkpt>
      <trkpt lat="43.48666" lon="5.95059">
        <ele>260.700012</ele>
        <time>2011-03-25T14:30:33Z</time>
      </trkpt>
      <trkpt lat="43.48675" lon="5.95059">
        <ele>260.799988</ele>
        <time>2011-03-25T14:30:40Z</time>
      </trkpt>
      <trkpt lat="43.48676" lon="5.95058">
        <ele>260.799988</ele>
        <time>2011-03-25T14:30:41Z</time>
      </trkpt>
      <trkpt lat="43.48691" lon="5.95053">
        <ele>260.5</ele>
        <time>2011-03-25T14:30:55Z</time>
      </trkpt>
      <trkpt lat="43.48699" lon="5.95052">
        <ele>260.899994</ele>
        <time>2011-03-25T14:31:03Z</time>
      </trkpt>
      <trkpt lat="43.48707" lon="5.9505">
        <ele>260.799988</ele>
        <time>2011-03-25T14:31:11Z</time>
      </trkpt>
      <trkpt lat="43.48716" lon="5.95046">
        <ele>260.700012</ele>
        <time>2011-03-25T14:31:20Z</time>
      </trkpt>
      <trkpt lat="43.48724" lon="5.95044">
        <ele>260.399994</ele>
        <time>2011-03-25T14:31:28Z</time>
      </trkpt>
      <trkpt lat="43.48732" lon="5.95042">
        <ele>260.700012</ele>
        <time>2011-03-25T14:31:36Z</time>
      </trkpt>
      <trkpt lat="43.4874" lon="5.95042">
        <ele>260.799988</ele>
        <time>2011-03-25T14:31:45Z</time>
      </trkpt>
      <trkpt lat="43.48742" lon="5.95042">
        <ele>260.899994</ele>
        <time>2011-03-25T14:31:46Z</time>
      </trkpt>
      <trkpt lat="43.48754" lon="5.95045">
        <ele>261</ele>
        <time>2011-03-25T14:36:14Z</time>
      </trkpt>
      <trkpt lat="43.48755" lon="5.95045">
        <ele>261.100006</ele>
        <time>2011-03-25T14:36:15Z</time>
      </trkpt>
      <trkpt lat="43.48771" lon="5.95041">
        <ele>260.700012</ele>
        <time>2011-03-25T14:36:36Z</time>
      </trkpt>
      <trkpt lat="43.48779" lon="5.9504">
        <ele>261</ele>
        <time>2011-03-25T14:36:44Z</time>
      </trkpt>
      <trkpt lat="43.48787" lon="5.95038">
        <ele>261.200012</ele>
        <time>2011-03-25T14:36:52Z</time>
      </trkpt>
      <trkpt lat="43.48795" lon="5.95037">
        <ele>261</ele>
        <time>2011-03-25T14:37:01Z</time>
      </trkpt>
      <trkpt lat="43.48804" lon="5.95035">
        <ele>261.399994</ele>
        <time>2011-03-25T14:37:10Z</time>
      </trkpt>
      <trkpt lat="43.48812" lon="5.95034">
        <ele>261.399994</ele>
        <time>2011-03-25T14:37:17Z</time>
      </trkpt>
      <trkpt lat="43.48813" lon="5.95034">
        <ele>261.399994</ele>
        <time>2011-03-25T14:37:18Z</time>
      </trkpt>
      <trkpt lat="43.48829" lon="5.9503">
        <ele>261.600006</ele>
        <time>2011-03-25T14:37:34Z</time>
      </trkpt>
      <trkpt lat="43.48838" lon="5.95029">
        <ele>261.100006</ele>
        <time>2011-03-25T14:37:43Z</time>
      </trkpt>
      <trkpt lat="43.48847" lon="5.95027">
        <ele>260.899994</ele>
        <time>2011-03-25T14:37:51Z</time>
      </trkpt>
      <trkpt lat="43.48855" lon="5.95026">
        <ele>261</ele>
        <time>2011-03-25T14:37:58Z</time>
      </trkpt>
      <trkpt lat="43.48863" lon="5.95025">
        <ele>261</ele>
        <time>2011-03-25T14:38:06Z</time>
      </trkpt>
      <trkpt lat="43.48871" lon="5.95024">
        <ele>261</ele>
        <time>2011-03-25T14:38:14Z</time>
      </trkpt>
      <trkpt lat="43.48879" lon="5.95022">
        <ele>261.100006</ele>
        <time>2011-03-25T14:38:21Z</time>
      </trkpt>
      <trkpt lat="43.4888" lon="5.95022">
        <ele>261.100006</ele>
        <time>2011-03-25T14:38:22Z</time>
      </trkpt>
      <trkpt lat="43.48896" lon="5.95022">
        <ele>260.600006</ele>
        <time>2011-03-25T14:38:37Z</time>
      </trkpt>
      <trkpt lat="43.48905" lon="5.9502">
        <ele>260.600006</ele>
        <time>2011-03-25T14:38:46Z</time>
      </trkpt>
      <trkpt lat="43.48913" lon="5.95017">
        <ele>261.200012</ele>
        <time>2011-03-25T14:38:54Z</time>
      </trkpt>
      <trkpt lat="43.48921" lon="5.95015">
        <ele>261</ele>
        <time>2011-03-25T14:39:01Z</time>
      </trkpt>
      <trkpt lat="43.48929" lon="5.95014">
        <ele>261</ele>
        <time>2011-03-25T14:39:08Z</time>
      </trkpt>
      <trkpt lat="43.48938" lon="5.95016">
        <ele>261.200012</ele>
        <time>2011-03-25T14:39:15Z</time>
      </trkpt>
      <trkpt lat="43.48946" lon="5.95016">
        <ele>261.399994</ele>
        <time>2011-03-25T14:39:22Z</time>
      </trkpt>
      <trkpt lat="43.48947" lon="5.95015">
        <ele>261.399994</ele>
        <time>2011-03-25T14:39:23Z</time>
      </trkpt>
      <trkpt lat="43.48962" lon="5.95008">
        <ele>261.200012</ele>
        <time>2011-03-25T14:39:41Z</time>
      </trkpt>
      <trkpt lat="43.48971" lon="5.95005">
        <ele>261.899994</ele>
        <time>2011-03-25T14:39:50Z</time>
      </trkpt>
      <trkpt lat="43.48979" lon="5.95">
        <ele>261.600006</ele>
        <time>2011-03-25T14:39:59Z</time>
      </trkpt>
      <trkpt lat="43.48986" lon="5.94998">
        <ele>261.700012</ele>
        <time>2011-03-25T14:40:07Z</time>
      </trkpt>
      <trkpt lat="43.48995" lon="5.94999">
        <ele>261.399994</ele>
        <time>2011-03-25T14:40:14Z</time>
      </trkpt>
      <trkpt lat="43.49003" lon="5.94998">
        <ele>261.399994</ele>
        <time>2011-03-25T14:40:23Z</time>
      </trkpt>
      <trkpt lat="43.49004" lon="5.94997">
        <ele>261.600006</ele>
        <time>2011-03-25T14:40:24Z</time>
      </trkpt>
      <trkpt lat="43.49019" lon="5.94993">
        <ele>260.899994</ele>
        <time>2011-03-25T14:40:41Z</time>
      </trkpt>
      <trkpt lat="43.49027" lon="5.94989">
        <ele>261.200012</ele>
        <time>2011-03-25T14:40:51Z</time>
      </trkpt>
      <trkpt lat="43.49035" lon="5.94985">
        <ele>261.600006</ele>
        <time>2011-03-25T14:41:00Z</time>
      </trkpt>
      <trkpt lat="43.49043" lon="5.94981">
        <ele>261.100006</ele>
        <time>2011-03-25T14:41:10Z</time>
      </trkpt>
      <trkpt lat="43.49051" lon="5.94976">
        <ele>260.799988</ele>
        <time>2011-03-25T14:41:18Z</time>
      </trkpt>
      <trkpt lat="43.49057" lon="5.94967">
        <ele>261</ele>
        <time>2011-03-25T14:41:26Z</time>
      </trkpt>
      <trkpt lat="43.49058" lon="5.94967">
        <ele>261.100006</ele>
        <time>2011-03-25T14:41:27Z</time>
      </trkpt>
      <trkpt lat="43.49073" lon="5.9496">
        <ele>261</ele>
        <time>2011-03-25T14:41:41Z</time>
      </trkpt>
      <trkpt lat="43.49082" lon="5.9496">
        <ele>260.899994</ele>
        <time>2011-03-25T14:41:48Z</time>
      </trkpt>
      <trkpt lat="43.4909" lon="5.94964">
        <ele>261.100006</ele>
        <time>2011-03-25T14:41:54Z</time>
      </trkpt>
      <trkpt lat="43.49098" lon="5.94966">
        <ele>261.5</ele>
        <time>2011-03-25T14:42:02Z</time>
      </trkpt>
      <trkpt lat="43.49106" lon="5.94967">
        <ele>261</ele>
        <time>2011-03-25T14:42:11Z</time>
      </trkpt>
      <trkpt lat="43.49114" lon="5.94963">
        <ele>261.899994</ele>
        <time>2011-03-25T14:42:18Z</time>
      </trkpt>
      <trkpt lat="43.49122" lon="5.9496">
        <ele>261.600006</ele>
        <time>2011-03-25T14:42:25Z</time>
      </trkpt>
      <trkpt lat="43.4913" lon="5.94959">
        <ele>261.799988</ele>
        <time>2011-03-25T14:42:32Z</time>
      </trkpt>
      <trkpt lat="43.49132" lon="5.94958">
        <ele>261.899994</ele>
        <time>2011-03-25T14:42:33Z</time>
      </trkpt>
      <trkpt lat="43.49147" lon="5.9496">
        <ele>261.700012</ele>
        <time>2011-03-25T14:42:46Z</time>
      </trkpt>
      <trkpt lat="43.49155" lon="5.94959">
        <ele>262.100006</ele>
        <time>2011-03-25T14:42:53Z</time>
      </trkpt>
      <trkpt lat="43.49163" lon="5.94957">
        <ele>262.299988</ele>
        <time>2011-03-25T14:43:00Z</time>
      </trkpt>
      <trkpt lat="43.49172" lon="5.94955">
        <ele>261.899994</ele>
        <time>2011-03-25T14:43:07Z</time>
      </trkpt>
      <trkpt lat="43.4918" lon="5.9495">
        <ele>261.700012</ele>
        <time>2011-03-25T14:43:14Z</time>
      </trkpt>
      <trkpt lat="43.49187" lon="5.94946">
        <ele>261.600006</ele>
        <time>2011-03-25T14:43:20Z</time>
      </trkpt>
      <trkpt lat="43.49195" lon="5.94941">
        <ele>261.200012</ele>
        <time>2011-03-25T14:43:29Z</time>
      </trkpt>
      <trkpt lat="43.49203" lon="5.94936">
        <ele>261.399994</ele>
        <time>2011-03-25T14:43:36Z</time>
      </trkpt>
      <trkpt lat="43.49204" lon="5.94936">
        <ele>261.399994</ele>
        <time>2011-03-25T14:43:37Z</time>
      </trkpt>
      <trkpt lat="43.49219" lon="5.94938">
        <ele>261.799988</ele>
        <time>2011-03-25T14:43:48Z</time>
      </trkpt>
      <trkpt lat="43.49227" lon="5.94937">
        <ele>261.600006</ele>
        <time>2011-03-25T14:43:55Z</time>
      </trkpt>
      <trkpt lat="43.49235" lon="5.94935">
        <ele>261.399994</ele>
        <time>2011-03-25T14:44:02Z</time>
      </trkpt>
      <trkpt lat="43.49244" lon="5.94933">
        <ele>261.5</ele>
        <time>2011-03-25T14:44:10Z</time>
      </trkpt>
      <trkpt lat="43.49251" lon="5.94934">
        <ele>261.799988</ele>
        <time>2011-03-25T14:44:16Z</time>
      </trkpt>
      <trkpt lat="43.49259" lon="5.94938">
        <ele>261.600006</ele>
        <time>2011-03-25T14:44:23Z</time>
      </trkpt>
      <trkpt lat="43.49265" lon="5.94946">
        <ele>261.700012</ele>
        <time>2011-03-25T14:44:31Z</time>
      </trkpt>
      <trkpt lat="43.4927" lon="5.94956">
        <ele>261.899994</ele>
        <time>2011-03-25T14:44:39Z</time>
      </trkpt>
      <trkpt lat="43.4927" lon="5.94956">
        <ele>261.799988</ele>
        <time>2011-03-25T14:44:40Z</time>
      </trkpt>
      <trkpt lat="43.49278" lon="5.94976">
        <ele>262.5</ele>
        <time>2011-03-25T14:44:56Z</time>
      </trkpt>
      <trkpt lat="43.49282" lon="5.94985">
        <ele>262.799988</ele>
        <time>2011-03-25T14:45:03Z</time>
      </trkpt>
      <trkpt lat="43.49288" lon="5.94994">
        <ele>262.799988</ele>
        <time>2011-03-25T14:45:12Z</time>
      </trkpt>
      <trkpt lat="43.49294" lon="5.95003">
        <ele>263.100006</ele>
        <time>2011-03-25T14:45:20Z</time>
      </trkpt>
      <trkpt lat="43.49301" lon="5.95008">
        <ele>263.5</ele>
        <time>2011-03-25T14:45:27Z</time>
      </trkpt>
      <trkpt lat="43.49307" lon="5.95016">
        <ele>263.799988</ele>
        <time>2011-03-25T14:45:36Z</time>
      </trkpt>
      <trkpt lat="43.49312" lon="5.95026">
        <ele>263.5</ele>
        <time>2011-03-25T14:45:44Z</time>
      </trkpt>
      <trkpt lat="43.49313" lon="5.95028">
        <ele>263.399994</ele>
        <time>2011-03-25T14:45:45Z</time>
      </trkpt>
      <trkpt lat="43.49321" lon="5.95046">
        <ele>263</ele>
        <time>2011-03-25T14:45:59Z</time>
      </trkpt>
      <trkpt lat="43.49324" lon="5.95057">
        <ele>262.700012</ele>
        <time>2011-03-25T14:46:06Z</time>
      </trkpt>
      <trkpt lat="43.49326" lon="5.95067">
        <ele>261.899994</ele>
        <time>2011-03-25T14:46:13Z</time>
      </trkpt>
      <trkpt lat="43.49329" lon="5.95078">
        <ele>261.700012</ele>
        <time>2011-03-25T14:46:20Z</time>
      </trkpt>
      <trkpt lat="43.49332" lon="5.95088">
        <ele>261.100006</ele>
        <time>2011-03-25T14:46:27Z</time>
      </trkpt>
      <trkpt lat="43.49335" lon="5.95099">
        <ele>260.899994</ele>
        <time>2011-03-25T14:46:34Z</time>
      </trkpt>
      <trkpt lat="43.49339" lon="5.95109">
        <ele>260.700012</ele>
        <time>2011-03-25T14:46:41Z</time>
      </trkpt>
      <trkpt lat="43.49342" lon="5.95119">
        <ele>260.799988</ele>
        <time>2011-03-25T14:46:49Z</time>
      </trkpt>
      <trkpt lat="43.49343" lon="5.95121">
        <ele>260.600006</ele>
        <time>2011-03-25T14:46:50Z</time>
      </trkpt>
      <trkpt lat="43.4935" lon="5.9514">
        <ele>260.399994</ele>
        <time>2011-03-25T14:47:08Z</time>
      </trkpt>
      <trkpt lat="43.49354" lon="5.9515">
        <ele>260.399994</ele>
        <time>2011-03-25T14:47:16Z</time>
      </trkpt>
      <trkpt lat="43.49358" lon="5.9516">
        <ele>260.5</ele>
        <time>2011-03-25T14:47:24Z</time>
      </trkpt>
      <trkpt lat="43.49363" lon="5.9517">
        <ele>260.600006</ele>
        <time>2011-03-25T14:47:33Z</time>
      </trkpt>
      <trkpt lat="43.49367" lon="5.9518">
        <ele>260.899994</ele>
        <time>2011-03-25T14:47:40Z</time>
      </trkpt>
      <trkpt lat="43.4937" lon="5.95191">
        <ele>261.299988</ele>
        <time>2011-03-25T14:47:49Z</time>
      </trkpt>
      <trkpt lat="43.49374" lon="5.95202">
        <ele>261.100006</ele>
        <time>2011-03-25T14:47:57Z</time>
      </trkpt>
      <trkpt lat="43.49374" lon="5.95202">
        <ele>261.100006</ele>
        <time>2011-03-25T14:47:58Z</time>
      </trkpt>
      <trkpt lat="43.49382" lon="5.9522">
        <ele>261.200012</ele>
        <time>2011-03-25T14:48:12Z</time>
      </trkpt>
      <trkpt lat="43.49387" lon="5.9523">
        <ele>261.600006</ele>
        <time>2011-03-25T14:48:20Z</time>
      </trkpt>
      <trkpt lat="43.4939" lon="5.95241">
        <ele>260.899994</ele>
        <time>2011-03-25T14:49:05Z</time>
      </trkpt>
      <trkpt lat="43.4939" lon="5.95241">
        <ele>260.700012</ele>
        <time>2011-03-25T14:49:06Z</time>
      </trkpt>
      <trkpt lat="43.49398" lon="5.95249">
        <ele>261</ele>
        <time>2011-03-25T14:51:05Z</time>
      </trkpt>
      <trkpt lat="43.49407" lon="5.95267">
        <ele>260.600006</ele>
        <time>2011-03-25T14:51:24Z</time>
      </trkpt>
      <trkpt lat="43.49413" lon="5.95276">
        <ele>261.200012</ele>
        <time>2011-03-25T14:51:33Z</time>
      </trkpt>
      <trkpt lat="43.49419" lon="5.95283">
        <ele>261</ele>
        <time>2011-03-25T14:51:41Z</time>
      </trkpt>
      <trkpt lat="43.49425" lon="5.9529">
        <ele>261.399994</ele>
        <time>2011-03-25T14:51:49Z</time>
      </trkpt>
      <trkpt lat="43.49432" lon="5.95297">
        <ele>261.600006</ele>
        <time>2011-03-25T14:51:58Z</time>
      </trkpt>
      <trkpt lat="43.49438" lon="5.95303">
        <ele>261.700012</ele>
        <time>2011-03-25T14:52:06Z</time>
      </trkpt>
      <trkpt lat="43.49439" lon="5.95304">
        <ele>261.5</ele>
        <time>2011-03-25T14:52:07Z</time>
      </trkpt>
      <trkpt lat="43.49456" lon="5.95302">
        <ele>261.5</ele>
        <time>2011-03-25T14:52:24Z</time>
      </trkpt>
      <trkpt lat="43.49464" lon="5.95301">
        <ele>261.5</ele>
        <time>2011-03-25T14:52:33Z</time>
      </trkpt>
      <trkpt lat="43.49472" lon="5.95299">
        <ele>261.700012</ele>
        <time>2011-03-25T14:52:39Z</time>
      </trkpt>
      <trkpt lat="43.4948" lon="5.95295">
        <ele>261.700012</ele>
        <time>2011-03-25T14:52:47Z</time>
      </trkpt>
      <trkpt lat="43.49488" lon="5.95292">
        <ele>261.700012</ele>
        <time>2011-03-25T14:52:54Z</time>
      </trkpt>
      <trkpt lat="43.49495" lon="5.95287">
        <ele>261.600006</ele>
        <time>2011-03-25T14:53:03Z</time>
      </trkpt>
      <trkpt lat="43.49503" lon="5.95281">
        <ele>261.700012</ele>
        <time>2011-03-25T14:53:12Z</time>
      </trkpt>
      <trkpt lat="43.49504" lon="5.9528">
        <ele>261.600006</ele>
        <time>2011-03-25T14:53:13Z</time>
      </trkpt>
      <trkpt lat="43.49518" lon="5.95272">
        <ele>262</ele>
        <time>2011-03-25T14:53:28Z</time>
      </trkpt>
      <trkpt lat="43.49526" lon="5.95267">
        <ele>262.5</ele>
        <time>2011-03-25T14:53:35Z</time>
      </trkpt>
      <trkpt lat="43.49534" lon="5.95263">
        <ele>262.200012</ele>
        <time>2011-03-25T14:53:43Z</time>
      </trkpt>
      <trkpt lat="43.49542" lon="5.95258">
        <ele>262.200012</ele>
        <time>2011-03-25T14:53:51Z</time>
      </trkpt>
      <trkpt lat="43.49549" lon="5.9525">
        <ele>262.5</ele>
        <time>2011-03-25T14:53:59Z</time>
      </trkpt>
      <trkpt lat="43.49556" lon="5.95243">
        <ele>262.899994</ele>
        <time>2011-03-25T14:54:08Z</time>
      </trkpt>
      <trkpt lat="43.49563" lon="5.95237">
        <ele>263</ele>
        <time>2011-03-25T14:54:17Z</time>
      </trkpt>
      <trkpt lat="43.49564" lon="5.95236">
        <ele>262.899994</ele>
        <time>2011-03-25T14:54:18Z</time>
      </trkpt>
      <trkpt lat="43.49577" lon="5.95224">
        <ele>263.100006</ele>
        <time>2011-03-25T14:54:30Z</time>
      </trkpt>
      <trkpt lat="43.49584" lon="5.95216">
        <ele>263.100006</ele>
        <time>2011-03-25T14:54:38Z</time>
      </trkpt>
      <trkpt lat="43.49591" lon="5.9521">
        <ele>262.899994</ele>
        <time>2011-03-25T14:54:46Z</time>
      </trkpt>
      <trkpt lat="43.49598" lon="5.95204">
        <ele>262.799988</ele>
        <time>2011-03-25T14:54:53Z</time>
      </trkpt>
      <trkpt lat="43.49606" lon="5.95198">
        <ele>263</ele>
        <time>2011-03-25T14:55:01Z</time>
      </trkpt>
      <trkpt lat="43.49612" lon="5.95193">
        <ele>263.299988</ele>
        <time>2011-03-25T14:55:09Z</time>
      </trkpt>
      <trkpt lat="43.4962" lon="5.95187">
        <ele>263.100006</ele>
        <time>2011-03-25T14:55:17Z</time>
      </trkpt>
      <trkpt lat="43.49628" lon="5.95183">
        <ele>263.200012</ele>
        <time>2011-03-25T14:55:26Z</time>
      </trkpt>
      <trkpt lat="43.49629" lon="5.95182">
        <ele>263.299988</ele>
        <time>2011-03-25T14:55:27Z</time>
      </trkpt>
      <trkpt lat="43.49642" lon="5.9517">
        <ele>263.700012</ele>
        <time>2011-03-25T14:55:41Z</time>
      </trkpt>
      <trkpt lat="43.49648" lon="5.95162">
        <ele>263.899994</ele>
        <time>2011-03-25T14:55:47Z</time>
      </trkpt>
      <trkpt lat="43.49655" lon="5.95156">
        <ele>263.5</ele>
        <time>2011-03-25T14:55:54Z</time>
      </trkpt>
      <trkpt lat="43.49661" lon="5.95148">
        <ele>263.100006</ele>
        <time>2011-03-25T14:56:03Z</time>
      </trkpt>
      <trkpt lat="43.49667" lon="5.9514">
        <ele>263.100006</ele>
        <time>2011-03-25T14:56:11Z</time>
      </trkpt>
      <trkpt lat="43.49674" lon="5.95133">
        <ele>263.299988</ele>
        <time>2011-03-25T14:56:18Z</time>
      </trkpt>
      <trkpt lat="43.49682" lon="5.95127">
        <ele>262.799988</ele>
        <time>2011-03-25T14:56:26Z</time>
      </trkpt>
      <trkpt lat="43.49689" lon="5.9512">
        <ele>262.600006</ele>
        <time>2011-03-25T14:56:34Z</time>
      </trkpt>
      <trkpt lat="43.4969" lon="5.9512">
        <ele>262.600006</ele>
        <time>2011-03-25T14:56:35Z</time>
      </trkpt>
      <trkpt lat="43.49702" lon="5.95105">
        <ele>262.5</ele>
        <time>2011-03-25T14:56:52Z</time>
      </trkpt>
      <trkpt lat="43.4971" lon="5.95099">
        <ele>262.700012</ele>
        <time>2011-03-25T14:57:01Z</time>
      </trkpt>
      <trkpt lat="43.49716" lon="5.95091">
        <ele>262.299988</ele>
        <time>2011-03-25T14:57:10Z</time>
      </trkpt>
      <trkpt lat="43.49721" lon="5.95082">
        <ele>262</ele>
        <time>2011-03-25T14:57:18Z</time>
      </trkpt>
      <trkpt lat="43.49727" lon="5.95074">
        <ele>262.399994</ele>
        <time>2011-03-25T14:57:27Z</time>
      </trkpt>
      <trkpt lat="43.49732" lon="5.95066">
        <ele>262.399994</ele>
        <time>2011-03-25T14:57:37Z</time>
      </trkpt>
      <trkpt lat="43.49733" lon="5.95065">
        <ele>262.299988</ele>
        <time>2011-03-25T14:57:38Z</time>
      </trkpt>
      <trkpt lat="43.4974" lon="5.95051">
        <ele>264.100006</ele>
        <time>2011-03-25T14:58:02Z</time>
      </trkpt>
      <trkpt lat="43.49732" lon="5.95044">
        <ele>264.100006</ele>
        <time>2011-03-25T14:58:12Z</time>
      </trkpt>
      <trkpt lat="43.49729" lon="5.95033">
        <ele>263.200012</ele>
        <time>2011-03-25T14:58:28Z</time>
      </trkpt>
      <trkpt lat="43.49721" lon="5.95028">
        <ele>263.600006</ele>
        <time>2011-03-25T14:58:45Z</time>
      </trkpt>
      <trkpt lat="43.4972" lon="5.95028">
        <ele>263.799988</ele>
        <time>2011-03-25T14:58:46Z</time>
      </trkpt>
      <trkpt lat="43.49704" lon="5.95029">
        <ele>262.399994</ele>
        <time>2011-03-25T14:59:10Z</time>
      </trkpt>
      <trkpt lat="43.49696" lon="5.95029">
        <ele>262.700012</ele>
        <time>2011-03-25T14:59:21Z</time>
      </trkpt>
      <trkpt lat="43.49689" lon="5.95022">
        <ele>262.899994</ele>
        <time>2011-03-25T14:59:37Z</time>
      </trkpt>
      <trkpt lat="43.49682" lon="5.95014">
        <ele>263</ele>
        <time>2011-03-25T14:59:52Z</time>
      </trkpt>
      <trkpt lat="43.49682" lon="5.95013">
        <ele>263</ele>
        <time>2011-03-25T14:59:53Z</time>
      </trkpt>
      <trkpt lat="43.49689" lon="5.95004">
        <ele>263.100006</ele>
        <time>2011-03-25T15:01:04Z</time>
      </trkpt>
      <trkpt lat="43.49687" lon="5.95017">
        <ele>263.5</ele>
        <time>2011-03-25T15:02:35Z</time>
      </trkpt>
      <trkpt lat="43.49686" lon="5.95017">
        <ele>263.5</ele>
        <time>2011-03-25T15:02:36Z</time>
      </trkpt>
      <trkpt lat="43.49686" lon="5.95029">
        <ele>264.100006</ele>
        <time>2011-03-25T15:03:39Z</time>
      </trkpt>
      <trkpt lat="43.49677" lon="5.9501">
        <ele>265.299988</ele>
        <time>2011-03-25T15:04:06Z</time>
      </trkpt>
      <trkpt lat="43.49674" lon="5.94999">
        <ele>266.100006</ele>
        <time>2011-03-25T15:04:16Z</time>
      </trkpt>
      <trkpt lat="43.49677" lon="5.9501">
        <ele>265.899994</ele>
        <time>2011-03-25T15:04:36Z</time>
      </trkpt>
      <trkpt lat="43.4968" lon="5.95021">
        <ele>265.100006</ele>
        <time>2011-03-25T15:04:48Z</time>
      </trkpt>
      <trkpt lat="43.49681" lon="5.95022">
        <ele>265.299988</ele>
        <time>2011-03-25T15:04:49Z</time>
      </trkpt>
      <trkpt lat="43.49689" lon="5.95033">
        <ele>264.600006</ele>
        <time>2011-03-25T15:05:14Z</time>
      </trkpt>
      <trkpt lat="43.49692" lon="5.95022">
        <ele>263.700012</ele>
        <time>2011-03-25T15:05:30Z</time>
      </trkpt>
      <trkpt lat="43.49687" lon="5.95011">
        <ele>263.799988</ele>
        <time>2011-03-25T15:06:06Z</time>
      </trkpt>
      <trkpt lat="43.49688" lon="5.9501">
        <ele>263.799988</ele>
        <time>2011-03-25T15:06:07Z</time>
      </trkpt>
      <trkpt lat="43.49702" lon="5.95002">
        <ele>263.5</ele>
        <time>2011-03-25T15:06:32Z</time>
      </trkpt>
      <trkpt lat="43.49707" lon="5.9501">
        <ele>263.100006</ele>
        <time>2011-03-25T15:06:42Z</time>
      </trkpt>
      <trkpt lat="43.49703" lon="5.95019">
        <ele>263.100006</ele>
        <time>2011-03-25T15:06:48Z</time>
      </trkpt>
      <trkpt lat="43.49702" lon="5.95031">
        <ele>263.399994</ele>
        <time>2011-03-25T15:07:18Z</time>
      </trkpt>
      <trkpt lat="43.49701" lon="5.95033">
        <ele>263.299988</ele>
        <time>2011-03-25T15:07:19Z</time>
      </trkpt>
      <trkpt lat="43.4971" lon="5.95036">
        <ele>264</ele>
        <time>2011-03-25T15:09:10Z</time>
      </trkpt>
      <trkpt lat="43.49727" lon="5.95032">
        <ele>263.799988</ele>
        <time>2011-03-25T15:09:34Z</time>
      </trkpt>
      <trkpt lat="43.49734" lon="5.95039">
        <ele>263.399994</ele>
        <time>2011-03-25T15:09:55Z</time>
      </trkpt>
      <trkpt lat="43.49739" lon="5.95047">
        <ele>263.399994</ele>
        <time>2011-03-25T15:10:07Z</time>
      </trkpt>
      <trkpt lat="43.49747" lon="5.95048">
        <ele>262.700012</ele>
        <time>2011-03-25T15:10:17Z</time>
      </trkpt>
      <trkpt lat="43.49748" lon="5.95048">
        <ele>262.700012</ele>
        <time>2011-03-25T15:10:18Z</time>
      </trkpt>
      <trkpt lat="43.49756" lon="5.95029">
        <ele>263</ele>
        <time>2011-03-25T15:10:44Z</time>
      </trkpt>
      <trkpt lat="43.49759" lon="5.95018">
        <ele>262.5</ele>
        <time>2011-03-25T15:10:53Z</time>
      </trkpt>
      <trkpt lat="43.49762" lon="5.95007">
        <ele>262.399994</ele>
        <time>2011-03-25T15:11:06Z</time>
      </trkpt>
      <trkpt lat="43.49767" lon="5.94997">
        <ele>261.799988</ele>
        <time>2011-03-25T15:11:41Z</time>
      </trkpt>
      <trkpt lat="43.49767" lon="5.94997">
        <ele>262.100006</ele>
        <time>2011-03-25T15:11:42Z</time>
      </trkpt>
      <trkpt lat="43.49784" lon="5.94991">
        <ele>262.700012</ele>
        <time>2011-03-25T15:11:59Z</time>
      </trkpt>
      <trkpt lat="43.49792" lon="5.9499">
        <ele>262.600006</ele>
        <time>2011-03-25T15:12:11Z</time>
      </trkpt>
      <trkpt lat="43.498" lon="5.94985">
        <ele>262.5</ele>
        <time>2011-03-25T15:12:21Z</time>
      </trkpt>
      <trkpt lat="43.49809" lon="5.94983">
        <ele>262.799988</ele>
        <time>2011-03-25T15:12:33Z</time>
      </trkpt>
      <trkpt lat="43.49817" lon="5.94983">
        <ele>263</ele>
        <time>2011-03-25T15:12:41Z</time>
      </trkpt>
      <trkpt lat="43.49826" lon="5.94983">
        <ele>262.700012</ele>
        <time>2011-03-25T15:12:51Z</time>
      </trkpt>
      <trkpt lat="43.49827" lon="5.94984">
        <ele>262.899994</ele>
        <time>2011-03-25T15:12:52Z</time>
      </trkpt>
      <trkpt lat="43.49842" lon="5.94991">
        <ele>262.899994</ele>
        <time>2011-03-25T15:13:10Z</time>
      </trkpt>
      <trkpt lat="43.4985" lon="5.94994">
        <ele>262.399994</ele>
        <time>2011-03-25T15:13:18Z</time>
      </trkpt>
      <trkpt lat="43.49859" lon="5.94997">
        <ele>263.399994</ele>
        <time>2011-03-25T15:13:26Z</time>
      </trkpt>
      <trkpt lat="43.49866" lon="5.95001">
        <ele>263</ele>
        <time>2011-03-25T15:13:34Z</time>
      </trkpt>
      <trkpt lat="43.49874" lon="5.95006">
        <ele>262.700012</ele>
        <time>2011-03-25T15:13:41Z</time>
      </trkpt>
      <trkpt lat="43.49881" lon="5.95012">
        <ele>263.5</ele>
        <time>2011-03-25T15:13:49Z</time>
      </trkpt>
      <trkpt lat="43.49888" lon="5.95019">
        <ele>263.899994</ele>
        <time>2011-03-25T15:13:58Z</time>
      </trkpt>
      <trkpt lat="43.49888" lon="5.95021">
        <ele>263.799988</ele>
        <time>2011-03-25T15:13:59Z</time>
      </trkpt>
      <trkpt lat="43.49901" lon="5.95034">
        <ele>264.299988</ele>
        <time>2011-03-25T15:14:14Z</time>
      </trkpt>
      <trkpt lat="43.49904" lon="5.95045">
        <ele>263.899994</ele>
        <time>2011-03-25T15:14:26Z</time>
      </trkpt>
      <trkpt lat="43.49911" lon="5.95053">
        <ele>263.899994</ele>
        <time>2011-03-25T15:14:50Z</time>
      </trkpt>
      <trkpt lat="43.49919" lon="5.95059">
        <ele>263.799988</ele>
        <time>2011-03-25T15:15:01Z</time>
      </trkpt>
      <trkpt lat="43.4992" lon="5.9506">
        <ele>263.899994</ele>
        <time>2011-03-25T15:15:02Z</time>
      </trkpt>
      <trkpt lat="43.49931" lon="5.95075">
        <ele>263.700012</ele>
        <time>2011-03-25T15:15:39Z</time>
      </trkpt>
      <trkpt lat="43.49939" lon="5.95077">
        <ele>263.899994</ele>
        <time>2011-03-25T15:16:22Z</time>
      </trkpt>
      <trkpt lat="43.4994" lon="5.95077">
        <ele>263.899994</ele>
        <time>2011-03-25T15:16:23Z</time>
      </trkpt>
      <trkpt lat="43.49953" lon="5.95089">
        <ele>264.200012</ele>
        <time>2011-03-25T15:16:43Z</time>
      </trkpt>
      <trkpt lat="43.4996" lon="5.95097">
        <ele>264.299988</ele>
        <time>2011-03-25T15:16:52Z</time>
      </trkpt>
      <trkpt lat="43.49968" lon="5.95102">
        <ele>264.5</ele>
        <time>2011-03-25T15:17:00Z</time>
      </trkpt>
      <trkpt lat="43.49975" lon="5.95108">
        <ele>263.899994</ele>
        <time>2011-03-25T15:17:09Z</time>
      </trkpt>
      <trkpt lat="43.49983" lon="5.95111">
        <ele>264.100006</ele>
        <time>2011-03-25T15:17:18Z</time>
      </trkpt>
      <trkpt lat="43.49989" lon="5.9512">
        <ele>264.100006</ele>
        <time>2011-03-25T15:17:27Z</time>
      </trkpt>
      <trkpt lat="43.4999" lon="5.9512">
        <ele>264</ele>
        <time>2011-03-25T15:17:28Z</time>
      </trkpt>
      <trkpt lat="43.50003" lon="5.95133">
        <ele>263.600006</ele>
        <time>2011-03-25T15:17:45Z</time>
      </trkpt>
      <trkpt lat="43.50009" lon="5.95142">
        <ele>263.5</ele>
        <time>2011-03-25T15:17:53Z</time>
      </trkpt>
      <trkpt lat="43.50015" lon="5.9515">
        <ele>263.200012</ele>
        <time>2011-03-25T15:18:01Z</time>
      </trkpt>
      <trkpt lat="43.50022" lon="5.95156">
        <ele>262.799988</ele>
        <time>2011-03-25T15:18:08Z</time>
      </trkpt>
      <trkpt lat="43.5003" lon="5.95161">
        <ele>262.799988</ele>
        <time>2011-03-25T15:18:15Z</time>
      </trkpt>
      <trkpt lat="43.50037" lon="5.95168">
        <ele>263.200012</ele>
        <time>2011-03-25T15:18:23Z</time>
      </trkpt>
      <trkpt lat="43.50044" lon="5.95175">
        <ele>263.100006</ele>
        <time>2011-03-25T15:18:31Z</time>
      </trkpt>
      <trkpt lat="43.50045" lon="5.95176">
        <ele>263.100006</ele>
        <time>2011-03-25T15:18:32Z</time>
      </trkpt>
      <trkpt lat="43.50056" lon="5.95191">
        <ele>263.399994</ele>
        <time>2011-03-25T15:18:44Z</time>
      </trkpt>
      <trkpt lat="43.50063" lon="5.95198">
        <ele>263.600006</ele>
        <time>2011-03-25T15:18:52Z</time>
      </trkpt>
      <trkpt lat="43.50069" lon="5.95206">
        <ele>263.399994</ele>
        <time>2011-03-25T15:19:01Z</time>
      </trkpt>
      <trkpt lat="43.50075" lon="5.95214">
        <ele>264.799988</ele>
        <time>2011-03-25T15:19:11Z</time>
      </trkpt>
      <trkpt lat="43.50082" lon="5.9522">
        <ele>265.100006</ele>
        <time>2011-03-25T15:19:23Z</time>
      </trkpt>
      <trkpt lat="43.50084" lon="5.95232">
        <ele>265.899994</ele>
        <time>2011-03-25T15:20:05Z</time>
      </trkpt>
      <trkpt lat="43.50084" lon="5.95233">
        <ele>266</ele>
        <time>2011-03-25T15:20:06Z</time>
      </trkpt>
      <trkpt lat="43.50077" lon="5.95253">
        <ele>267</ele>
        <time>2011-03-25T15:21:15Z</time>
      </trkpt>
      <trkpt lat="43.50077" lon="5.95254">
        <ele>267.100006</ele>
        <time>2011-03-25T15:21:16Z</time>
      </trkpt>
      <trkpt lat="43.50074" lon="5.95256">
        <ele>268.200012</ele>
        <time>2011-03-25T15:23:01Z</time>
      </trkpt>
      <trkpt lat="43.50074" lon="5.95257">
        <ele>268.100006</ele>
        <time>2011-03-25T15:23:02Z</time>
      </trkpt>
      <trkpt lat="43.50061" lon="5.95272">
        <ele>270</ele>
        <time>2011-03-25T15:24:06Z</time>
      </trkpt>
      <trkpt lat="43.50061" lon="5.95273">
        <ele>270</ele>
        <time>2011-03-25T15:24:07Z</time>
      </trkpt>
      <trkpt lat="43.50051" lon="5.9529">
        <ele>271</ele>
        <time>2011-03-25T15:24:23Z</time>
      </trkpt>
      <trkpt lat="43.50045" lon="5.95299">
        <ele>271.5</ele>
        <time>2011-03-25T15:24:33Z</time>
      </trkpt>
      <trkpt lat="43.50038" lon="5.95307">
        <ele>272.200012</ele>
        <time>2011-03-25T15:24:43Z</time>
      </trkpt>
      <trkpt lat="43.50032" lon="5.95314">
        <ele>272.399994</ele>
        <time>2011-03-25T15:24:52Z</time>
      </trkpt>
      <trkpt lat="43.50027" lon="5.95323">
        <ele>272.200012</ele>
        <time>2011-03-25T15:25:00Z</time>
      </trkpt>
      <trkpt lat="43.50021" lon="5.95331">
        <ele>271.700012</ele>
        <time>2011-03-25T15:25:07Z</time>
      </trkpt>
      <trkpt lat="43.5002" lon="5.95333">
        <ele>271.600006</ele>
        <time>2011-03-25T15:25:08Z</time>
      </trkpt>
      <trkpt lat="43.50011" lon="5.9535">
        <ele>270.700012</ele>
        <time>2011-03-25T15:25:23Z</time>
      </trkpt>
      <trkpt lat="43.50006" lon="5.95359">
        <ele>270.799988</ele>
        <time>2011-03-25T15:25:31Z</time>
      </trkpt>
      <trkpt lat="43.50001" lon="5.95369">
        <ele>270.899994</ele>
        <time>2011-03-25T15:25:40Z</time>
      </trkpt>
      <trkpt lat="43.49996" lon="5.95379">
        <ele>270.600006</ele>
        <time>2011-03-25T15:25:47Z</time>
      </trkpt>
      <trkpt lat="43.4999" lon="5.95388">
        <ele>270.799988</ele>
        <time>2011-03-25T15:25:54Z</time>
      </trkpt>
      <trkpt lat="43.49985" lon="5.95397">
        <ele>270.799988</ele>
        <time>2011-03-25T15:26:02Z</time>
      </trkpt>
      <trkpt lat="43.4998" lon="5.95407">
        <ele>271.200012</ele>
        <time>2011-03-25T15:26:11Z</time>
      </trkpt>
      <trkpt lat="43.49979" lon="5.95408">
        <ele>271.299988</ele>
        <time>2011-03-25T15:26:12Z</time>
      </trkpt>
      <trkpt lat="43.49971" lon="5.95427">
        <ele>271.399994</ele>
        <time>2011-03-25T15:26:26Z</time>
      </trkpt>
      <trkpt lat="43.49965" lon="5.95435">
        <ele>272.299988</ele>
        <time>2011-03-25T15:26:36Z</time>
      </trkpt>
      <trkpt lat="43.49957" lon="5.95449">
        <ele>273</ele>
        <time>2011-03-25T15:26:47Z</time>
      </trkpt>
      <trkpt lat="43.49954" lon="5.9546">
        <ele>275.299988</ele>
        <time>2011-03-25T15:26:56Z</time>
      </trkpt>
      <trkpt lat="43.49947" lon="5.95468">
        <ele>277.100006</ele>
        <time>2011-03-25T15:27:08Z</time>
      </trkpt>
      <trkpt lat="43.49943" lon="5.95479">
        <ele>277.600006</ele>
        <time>2011-03-25T15:27:16Z</time>
      </trkpt>
      <trkpt lat="43.49943" lon="5.9548">
        <ele>277.700012</ele>
        <time>2011-03-25T15:27:17Z</time>
      </trkpt>
      <trkpt lat="43.49936" lon="5.95499">
        <ele>279.5</ele>
        <time>2011-03-25T15:27:34Z</time>
      </trkpt>
      <trkpt lat="43.4993" lon="5.95506">
        <ele>280</ele>
        <time>2011-03-25T15:27:43Z</time>
      </trkpt>
      <trkpt lat="43.49921" lon="5.95508">
        <ele>280.299988</ele>
        <time>2011-03-25T15:27:52Z</time>
      </trkpt>
      <trkpt lat="43.49913" lon="5.95512">
        <ele>281.5</ele>
        <time>2011-03-25T15:28:02Z</time>
      </trkpt>
      <trkpt lat="43.49904" lon="5.95514">
        <ele>282.399994</ele>
        <time>2011-03-25T15:28:11Z</time>
      </trkpt>
      <trkpt lat="43.49896" lon="5.95514">
        <ele>282.799988</ele>
        <time>2011-03-25T15:28:19Z</time>
      </trkpt>
      <trkpt lat="43.49895" lon="5.95515">
        <ele>282.899994</ele>
        <time>2011-03-25T15:28:20Z</time>
      </trkpt>
      <trkpt lat="43.49879" lon="5.95512">
        <ele>283.200012</ele>
        <time>2011-03-25T15:28:37Z</time>
      </trkpt>
      <trkpt lat="43.4987" lon="5.95513">
        <ele>283.299988</ele>
        <time>2011-03-25T15:28:46Z</time>
      </trkpt>
      <trkpt lat="43.49862" lon="5.95517">
        <ele>283.799988</ele>
        <time>2011-03-25T15:28:54Z</time>
      </trkpt>
      <trkpt lat="43.49853" lon="5.95517">
        <ele>284.200012</ele>
        <time>2011-03-25T15:29:05Z</time>
      </trkpt>
      <trkpt lat="43.49846" lon="5.95523">
        <ele>284.899994</ele>
        <time>2011-03-25T15:29:17Z</time>
      </trkpt>
      <trkpt lat="43.49837" lon="5.95521">
        <ele>284.700012</ele>
        <time>2011-03-25T15:29:37Z</time>
      </trkpt>
      <trkpt lat="43.49836" lon="5.9552">
        <ele>284.700012</ele>
        <time>2011-03-25T15:29:38Z</time>
      </trkpt>
      <trkpt lat="43.49821" lon="5.95517">
        <ele>284.299988</ele>
        <time>2011-03-25T15:29:58Z</time>
      </trkpt>
      <trkpt lat="43.49813" lon="5.9552">
        <ele>284.700012</ele>
        <time>2011-03-25T15:30:08Z</time>
      </trkpt>
      <trkpt lat="43.49805" lon="5.95526">
        <ele>284.899994</ele>
        <time>2011-03-25T15:30:18Z</time>
      </trkpt>
      <trkpt lat="43.49798" lon="5.95532">
        <ele>284.799988</ele>
        <time>2011-03-25T15:30:27Z</time>
      </trkpt>
      <trkpt lat="43.49791" lon="5.95539">
        <ele>284.600006</ele>
        <time>2011-03-25T15:30:36Z</time>
      </trkpt>
      <trkpt lat="43.49784" lon="5.95545">
        <ele>284.700012</ele>
        <time>2011-03-25T15:30:45Z</time>
      </trkpt>
      <trkpt lat="43.49783" lon="5.95546">
        <ele>284.799988</ele>
        <time>2011-03-25T15:30:46Z</time>
      </trkpt>
      <trkpt lat="43.49772" lon="5.95562">
        <ele>283.200012</ele>
        <time>2011-03-25T15:31:04Z</time>
      </trkpt>
      <trkpt lat="43.49766" lon="5.95571">
        <ele>283.200012</ele>
        <time>2011-03-25T15:31:14Z</time>
      </trkpt>
      <trkpt lat="43.49759" lon="5.9558">
        <ele>283.200012</ele>
        <time>2011-03-25T15:31:25Z</time>
      </trkpt>
      <trkpt lat="43.49757" lon="5.95591">
        <ele>283.399994</ele>
        <time>2011-03-25T15:31:53Z</time>
      </trkpt>
      <trkpt lat="43.49756" lon="5.95592">
        <ele>283.299988</ele>
        <time>2011-03-25T15:31:54Z</time>
      </trkpt>
      <trkpt lat="43.49743" lon="5.95606">
        <ele>283.899994</ele>
        <time>2011-03-25T15:32:14Z</time>
      </trkpt>
      <trkpt lat="43.49736" lon="5.95612">
        <ele>284.5</ele>
        <time>2011-03-25T15:32:23Z</time>
      </trkpt>
      <trkpt lat="43.49729" lon="5.95625">
        <ele>285</ele>
        <time>2011-03-25T15:32:33Z</time>
      </trkpt>
      <trkpt lat="43.49724" lon="5.95633">
        <ele>285.899994</ele>
        <time>2011-03-25T15:32:41Z</time>
      </trkpt>
      <trkpt lat="43.49717" lon="5.95641">
        <ele>286.100006</ele>
        <time>2011-03-25T15:32:50Z</time>
      </trkpt>
      <trkpt lat="43.49711" lon="5.95649">
        <ele>286.799988</ele>
        <time>2011-03-25T15:33:01Z</time>
      </trkpt>
      <trkpt lat="43.4971" lon="5.9565">
        <ele>286.799988</ele>
        <time>2011-03-25T15:33:02Z</time>
      </trkpt>
      <trkpt lat="43.49697" lon="5.95662">
        <ele>288.299988</ele>
        <time>2011-03-25T15:33:23Z</time>
      </trkpt>
      <trkpt lat="43.49691" lon="5.95671">
        <ele>288.100006</ele>
        <time>2011-03-25T15:33:33Z</time>
      </trkpt>
      <trkpt lat="43.49684" lon="5.95677">
        <ele>288.600006</ele>
        <time>2011-03-25T15:33:42Z</time>
      </trkpt>
      <trkpt lat="43.49676" lon="5.95682">
        <ele>288.5</ele>
        <time>2011-03-25T15:33:51Z</time>
      </trkpt>
      <trkpt lat="43.49669" lon="5.95689">
        <ele>288.100006</ele>
        <time>2011-03-25T15:34:03Z</time>
      </trkpt>
      <trkpt lat="43.49668" lon="5.95689">
        <ele>288.200012</ele>
        <time>2011-03-25T15:34:04Z</time>
      </trkpt>
      <trkpt lat="43.49653" lon="5.95694">
        <ele>287.799988</ele>
        <time>2011-03-25T15:34:21Z</time>
      </trkpt>
      <trkpt lat="43.49644" lon="5.95693">
        <ele>287.700012</ele>
        <time>2011-03-25T15:34:30Z</time>
      </trkpt>
      <trkpt lat="43.49636" lon="5.95691">
        <ele>287.700012</ele>
        <time>2011-03-25T15:34:40Z</time>
      </trkpt>
      <trkpt lat="43.49627" lon="5.9569">
        <ele>287.700012</ele>
        <time>2011-03-25T15:34:49Z</time>
      </trkpt>
      <trkpt lat="43.4962" lon="5.95695">
        <ele>287.299988</ele>
        <time>2011-03-25T15:34:56Z</time>
      </trkpt>
      <trkpt lat="43.49613" lon="5.95703">
        <ele>286.799988</ele>
        <time>2011-03-25T15:35:04Z</time>
      </trkpt>
      <trkpt lat="43.49613" lon="5.95704">
        <ele>286.600006</ele>
        <time>2011-03-25T15:35:05Z</time>
      </trkpt>
      <trkpt lat="43.49602" lon="5.95718">
        <ele>287.100006</ele>
        <time>2011-03-25T15:35:18Z</time>
      </trkpt>
      <trkpt lat="43.49595" lon="5.95723">
        <ele>287</ele>
        <time>2011-03-25T15:35:27Z</time>
      </trkpt>
      <trkpt lat="43.49587" lon="5.95728">
        <ele>287.200012</ele>
        <time>2011-03-25T15:35:35Z</time>
      </trkpt>
      <trkpt lat="43.49579" lon="5.95732">
        <ele>287</ele>
        <time>2011-03-25T15:35:42Z</time>
      </trkpt>
      <trkpt lat="43.49571" lon="5.95736">
        <ele>286.5</ele>
        <time>2011-03-25T15:35:51Z</time>
      </trkpt>
      <trkpt lat="43.49564" lon="5.95743">
        <ele>284.700012</ele>
        <time>2011-03-25T15:36:00Z</time>
      </trkpt>
      <trkpt lat="43.49556" lon="5.95749">
        <ele>282.899994</ele>
        <time>2011-03-25T15:36:08Z</time>
      </trkpt>
      <trkpt lat="43.49556" lon="5.9575">
        <ele>282.899994</ele>
        <time>2011-03-25T15:36:09Z</time>
      </trkpt>
      <trkpt lat="43.49541" lon="5.95759">
        <ele>279.399994</ele>
        <time>2011-03-25T15:36:29Z</time>
      </trkpt>
      <trkpt lat="43.49534" lon="5.95766">
        <ele>277.899994</ele>
        <time>2011-03-25T15:36:39Z</time>
      </trkpt>
      <trkpt lat="43.49527" lon="5.95774">
        <ele>276.700012</ele>
        <time>2011-03-25T15:36:48Z</time>
      </trkpt>
      <trkpt lat="43.4952" lon="5.95782">
        <ele>275.899994</ele>
        <time>2011-03-25T15:36:57Z</time>
      </trkpt>
      <trkpt lat="43.49512" lon="5.95788">
        <ele>275.299988</ele>
        <time>2011-03-25T15:37:09Z</time>
      </trkpt>
      <trkpt lat="43.49512" lon="5.95788">
        <ele>275.399994</ele>
        <time>2011-03-25T15:37:10Z</time>
      </trkpt>
      <trkpt lat="43.49496" lon="5.95789">
        <ele>275.100006</ele>
        <time>2011-03-25T15:37:26Z</time>
      </trkpt>
      <trkpt lat="43.49488" lon="5.9579">
        <ele>275.200012</ele>
        <time>2011-03-25T15:37:33Z</time>
      </trkpt>
      <trkpt lat="43.4948" lon="5.95791">
        <ele>275.100006</ele>
        <time>2011-03-25T15:37:42Z</time>
      </trkpt>
      <trkpt lat="43.49472" lon="5.95792">
        <ele>274.899994</ele>
        <time>2011-03-25T15:37:49Z</time>
      </trkpt>
      <trkpt lat="43.49463" lon="5.95792">
        <ele>273.899994</ele>
        <time>2011-03-25T15:37:58Z</time>
      </trkpt>
      <trkpt lat="43.49454" lon="5.95792">
        <ele>273.299988</ele>
        <time>2011-03-25T15:38:08Z</time>
      </trkpt>
      <trkpt lat="43.49446" lon="5.95793">
        <ele>272.799988</ele>
        <time>2011-03-25T15:38:16Z</time>
      </trkpt>
      <trkpt lat="43.49445" lon="5.95793">
        <ele>272.799988</ele>
        <time>2011-03-25T15:38:17Z</time>
      </trkpt>
      <trkpt lat="43.49429" lon="5.95798">
        <ele>271.899994</ele>
        <time>2011-03-25T15:38:32Z</time>
      </trkpt>
      <trkpt lat="43.49421" lon="5.95799">
        <ele>271.799988</ele>
        <time>2011-03-25T15:38:39Z</time>
      </trkpt>
      <trkpt lat="43.49413" lon="5.958">
        <ele>271.700012</ele>
        <time>2011-03-25T15:38:46Z</time>
      </trkpt>
      <trkpt lat="43.49405" lon="5.95799">
        <ele>271</ele>
        <time>2011-03-25T15:38:53Z</time>
      </trkpt>
      <trkpt lat="43.49397" lon="5.95795">
        <ele>270.5</ele>
        <time>2011-03-25T15:39:00Z</time>
      </trkpt>
      <trkpt lat="43.49402" lon="5.95786">
        <ele>271.5</ele>
        <time>2011-03-25T15:39:39Z</time>
      </trkpt>
      <trkpt lat="43.49403" lon="5.95786">
        <ele>271.399994</ele>
        <time>2011-03-25T15:39:40Z</time>
      </trkpt>
      <trkpt lat="43.49395" lon="5.95794">
        <ele>271.700012</ele>
        <time>2011-03-25T15:41:26Z</time>
      </trkpt>
      <trkpt lat="43.49397" lon="5.9577">
        <ele>272</ele>
        <time>2011-03-25T15:42:06Z</time>
      </trkpt>
      <trkpt lat="43.494" lon="5.9576">
        <ele>271.700012</ele>
        <time>2011-03-25T15:42:13Z</time>
      </trkpt>
      <trkpt lat="43.49401" lon="5.95749">
        <ele>270.799988</ele>
        <time>2011-03-25T15:42:21Z</time>
      </trkpt>
      <trkpt lat="43.49403" lon="5.95737">
        <ele>270.100006</ele>
        <time>2011-03-25T15:42:28Z</time>
      </trkpt>
      <trkpt lat="43.49403" lon="5.95735">
        <ele>270.100006</ele>
        <time>2011-03-25T15:42:29Z</time>
      </trkpt>
      <trkpt lat="43.49407" lon="5.95714">
        <ele>269</ele>
        <time>2011-03-25T15:42:44Z</time>
      </trkpt>
      <trkpt lat="43.49408" lon="5.95703">
        <ele>268.399994</ele>
        <time>2011-03-25T15:42:52Z</time>
      </trkpt>
      <trkpt lat="43.4941" lon="5.95692">
        <ele>268</ele>
        <time>2011-03-25T15:43:00Z</time>
      </trkpt>
      <trkpt lat="43.49412" lon="5.9568">
        <ele>268</ele>
        <time>2011-03-25T15:43:07Z</time>
      </trkpt>
      <trkpt lat="43.49414" lon="5.95668">
        <ele>267.799988</ele>
        <time>2011-03-25T15:43:15Z</time>
      </trkpt>
      <trkpt lat="43.49416" lon="5.95657">
        <ele>267.200012</ele>
        <time>2011-03-25T15:43:23Z</time>
      </trkpt>
      <trkpt lat="43.49417" lon="5.95646">
        <ele>267.399994</ele>
        <time>2011-03-25T15:43:30Z</time>
      </trkpt>
      <trkpt lat="43.49417" lon="5.95644">
        <ele>267.399994</ele>
        <time>2011-03-25T15:43:31Z</time>
      </trkpt>
      <trkpt lat="43.49421" lon="5.95622">
        <ele>266.899994</ele>
        <time>2011-03-25T15:43:46Z</time>
      </trkpt>
      <trkpt lat="43.49423" lon="5.9561">
        <ele>267.200012</ele>
        <time>2011-03-25T15:43:54Z</time>
      </trkpt>
      <trkpt lat="43.49424" lon="5.95599">
        <ele>267</ele>
        <time>2011-03-25T15:44:01Z</time>
      </trkpt>
      <trkpt lat="43.49425" lon="5.95587">
        <ele>267.399994</ele>
        <time>2011-03-25T15:44:07Z</time>
      </trkpt>
      <trkpt lat="43.49427" lon="5.95576">
        <ele>267.200012</ele>
        <time>2011-03-25T15:44:14Z</time>
      </trkpt>
      <trkpt lat="43.49429" lon="5.95565">
        <ele>267.399994</ele>
        <time>2011-03-25T15:44:21Z</time>
      </trkpt>
      <trkpt lat="43.49434" lon="5.95557">
        <ele>268.100006</ele>
        <time>2011-03-25T15:44:28Z</time>
      </trkpt>
      <trkpt lat="43.49442" lon="5.95554">
        <ele>268.5</ele>
        <time>2011-03-25T15:44:36Z</time>
      </trkpt>
      <trkpt lat="43.49443" lon="5.95554">
        <ele>268.399994</ele>
        <time>2011-03-25T15:44:37Z</time>
      </trkpt>
      <trkpt lat="43.49455" lon="5.95542">
        <ele>268.200012</ele>
        <time>2011-03-25T15:44:50Z</time>
      </trkpt>
      <trkpt lat="43.49464" lon="5.95539">
        <ele>268.399994</ele>
        <time>2011-03-25T15:46:28Z</time>
      </trkpt>
      <trkpt lat="43.49464" lon="5.95539">
        <ele>268.5</ele>
        <time>2011-03-25T15:46:29Z</time>
      </trkpt>
      <trkpt lat="43.49463" lon="5.95516">
        <ele>268.399994</ele>
        <time>2011-03-25T15:47:16Z</time>
      </trkpt>
      <trkpt lat="43.49465" lon="5.95505">
        <ele>268.100006</ele>
        <time>2011-03-25T15:47:28Z</time>
      </trkpt>
      <trkpt lat="43.49463" lon="5.95494">
        <ele>268</ele>
        <time>2011-03-25T15:47:39Z</time>
      </trkpt>
      <trkpt lat="43.49463" lon="5.95493">
        <ele>268.100006</ele>
        <time>2011-03-25T15:47:40Z</time>
      </trkpt>
      <trkpt lat="43.49458" lon="5.95472">
        <ele>267.600006</ele>
        <time>2011-03-25T15:48:00Z</time>
      </trkpt>
      <trkpt lat="43.49456" lon="5.95461">
        <ele>267</ele>
        <time>2011-03-25T15:48:08Z</time>
      </trkpt>
      <trkpt lat="43.49453" lon="5.95451">
        <ele>266.200012</ele>
        <time>2011-03-25T15:48:17Z</time>
      </trkpt>
      <trkpt lat="43.49453" lon="5.95439">
        <ele>265.899994</ele>
        <time>2011-03-25T15:48:26Z</time>
      </trkpt>
      <trkpt lat="43.49452" lon="5.95428">
        <ele>265.299988</ele>
        <time>2011-03-25T15:48:33Z</time>
      </trkpt>
      <trkpt lat="43.49449" lon="5.95417">
        <ele>265</ele>
        <time>2011-03-25T15:48:41Z</time>
      </trkpt>
      <trkpt lat="43.49449" lon="5.95415">
        <ele>264.700012</ele>
        <time>2011-03-25T15:48:42Z</time>
      </trkpt>
      <trkpt lat="43.49445" lon="5.95394">
        <ele>264.5</ele>
        <time>2011-03-25T15:48:53Z</time>
      </trkpt>
      <trkpt lat="43.49443" lon="5.95383">
        <ele>264.899994</ele>
        <time>2011-03-25T15:49:01Z</time>
      </trkpt>
      <trkpt lat="43.49442" lon="5.95371">
        <ele>264.399994</ele>
        <time>2011-03-25T15:49:09Z</time>
      </trkpt>
      <trkpt lat="43.4944" lon="5.95359">
        <ele>264.799988</ele>
        <time>2011-03-25T15:49:17Z</time>
      </trkpt>
      <trkpt lat="43.49439" lon="5.95348">
        <ele>264.700012</ele>
        <time>2011-03-25T15:49:24Z</time>
      </trkpt>
      <trkpt lat="43.49438" lon="5.95336">
        <ele>265.299988</ele>
        <time>2011-03-25T15:49:32Z</time>
      </trkpt>
      <trkpt lat="43.49436" lon="5.95325">
        <ele>265.100006</ele>
        <time>2011-03-25T15:49:40Z</time>
      </trkpt>
      <trkpt lat="43.49435" lon="5.95314">
        <ele>265</ele>
        <time>2011-03-25T15:49:47Z</time>
      </trkpt>
      <trkpt lat="43.49434" lon="5.95313">
        <ele>265</ele>
        <time>2011-03-25T15:49:48Z</time>
      </trkpt>
      <trkpt lat="43.49426" lon="5.95294">
        <ele>266.200012</ele>
        <time>2011-03-25T15:50:07Z</time>
      </trkpt>
      <trkpt lat="43.49418" lon="5.95289">
        <ele>266.200012</ele>
        <time>2011-03-25T15:50:16Z</time>
      </trkpt>
      <trkpt lat="43.49411" lon="5.95281">
        <ele>265.899994</ele>
        <time>2011-03-25T15:50:32Z</time>
      </trkpt>
      <trkpt lat="43.49406" lon="5.95271">
        <ele>265.399994</ele>
        <time>2011-03-25T15:51:10Z</time>
      </trkpt>
      <trkpt lat="43.49406" lon="5.95271">
        <ele>265.299988</ele>
        <time>2011-03-25T15:51:11Z</time>
      </trkpt>
      <trkpt lat="43.49394" lon="5.95255">
        <ele>265.700012</ele>
        <time>2011-03-25T15:51:39Z</time>
      </trkpt>
      <trkpt lat="43.4939" lon="5.95246">
        <ele>265.600006</ele>
        <time>2011-03-25T15:51:49Z</time>
      </trkpt>
      <trkpt lat="43.49385" lon="5.95237">
        <ele>265.100006</ele>
        <time>2011-03-25T15:51:57Z</time>
      </trkpt>
      <trkpt lat="43.4938" lon="5.95228">
        <ele>265.299988</ele>
        <time>2011-03-25T15:52:05Z</time>
      </trkpt>
      <trkpt lat="43.49376" lon="5.95218">
        <ele>265</ele>
        <time>2011-03-25T15:52:13Z</time>
      </trkpt>
      <trkpt lat="43.49375" lon="5.95217">
        <ele>264.899994</ele>
        <time>2011-03-25T15:52:14Z</time>
      </trkpt>
      <trkpt lat="43.49367" lon="5.95198">
        <ele>265.100006</ele>
        <time>2011-03-25T15:52:28Z</time>
      </trkpt>
      <trkpt lat="43.49363" lon="5.95187">
        <ele>265.200012</ele>
        <time>2011-03-25T15:52:36Z</time>
      </trkpt>
      <trkpt lat="43.4936" lon="5.95176">
        <ele>264.899994</ele>
        <time>2011-03-25T15:52:44Z</time>
      </trkpt>
      <trkpt lat="43.49355" lon="5.95166">
        <ele>264.799988</ele>
        <time>2011-03-25T15:52:51Z</time>
      </trkpt>
      <trkpt lat="43.4935" lon="5.95156">
        <ele>264.700012</ele>
        <time>2011-03-25T15:52:58Z</time>
      </trkpt>
      <trkpt lat="43.49347" lon="5.95145">
        <ele>264.399994</ele>
        <time>2011-03-25T15:53:07Z</time>
      </trkpt>
      <trkpt lat="43.49342" lon="5.95135">
        <ele>264.799988</ele>
        <time>2011-03-25T15:53:14Z</time>
      </trkpt>
      <trkpt lat="43.49342" lon="5.95133">
        <ele>264.899994</ele>
        <time>2011-03-25T15:53:15Z</time>
      </trkpt>
      <trkpt lat="43.49335" lon="5.95113">
        <ele>264.799988</ele>
        <time>2011-03-25T15:53:31Z</time>
      </trkpt>
      <trkpt lat="43.49332" lon="5.95103">
        <ele>264.799988</ele>
        <time>2011-03-25T15:53:38Z</time>
      </trkpt>
      <trkpt lat="43.49328" lon="5.95093">
        <ele>264.799988</ele>
        <time>2011-03-25T15:53:46Z</time>
      </trkpt>
      <trkpt lat="43.49325" lon="5.95083">
        <ele>265.399994</ele>
        <time>2011-03-25T15:53:56Z</time>
      </trkpt>
      <trkpt lat="43.49323" lon="5.95071">
        <ele>265.700012</ele>
        <time>2011-03-25T15:54:05Z</time>
      </trkpt>
      <trkpt lat="43.49322" lon="5.9506">
        <ele>266.700012</ele>
        <time>2011-03-25T15:54:15Z</time>
      </trkpt>
      <trkpt lat="43.49321" lon="5.95058">
        <ele>266.799988</ele>
        <time>2011-03-25T15:54:16Z</time>
      </trkpt>
      <trkpt lat="43.49317" lon="5.95038">
        <ele>267.899994</ele>
        <time>2011-03-25T15:54:32Z</time>
      </trkpt>
      <trkpt lat="43.49312" lon="5.95029">
        <ele>268.100006</ele>
        <time>2011-03-25T15:54:41Z</time>
      </trkpt>
      <trkpt lat="43.49307" lon="5.9502">
        <ele>268.299988</ele>
        <time>2011-03-25T15:54:50Z</time>
      </trkpt>
      <trkpt lat="43.49302" lon="5.95011">
        <ele>267.600006</ele>
        <time>2011-03-25T15:54:58Z</time>
      </trkpt>
      <trkpt lat="43.49295" lon="5.95003">
        <ele>267.399994</ele>
        <time>2011-03-25T15:55:05Z</time>
      </trkpt>
      <trkpt lat="43.49289" lon="5.94996">
        <ele>267.700012</ele>
        <time>2011-03-25T15:55:12Z</time>
      </trkpt>
      <trkpt lat="43.49282" lon="5.94988">
        <ele>267.299988</ele>
        <time>2011-03-25T15:55:20Z</time>
      </trkpt>
      <trkpt lat="43.49282" lon="5.94987">
        <ele>267.100006</ele>
        <time>2011-03-25T15:55:21Z</time>
      </trkpt>
      <trkpt lat="43.49273" lon="5.9497">
        <ele>266.399994</ele>
        <time>2011-03-25T15:55:35Z</time>
      </trkpt>
      <trkpt lat="43.49269" lon="5.94961">
        <ele>266.399994</ele>
        <time>2011-03-25T15:55:41Z</time>
      </trkpt>
      <trkpt lat="43.49263" lon="5.94951">
        <ele>266.100006</ele>
        <time>2011-03-25T15:55:48Z</time>
      </trkpt>
      <trkpt lat="43.49258" lon="5.94942">
        <ele>266.399994</ele>
        <time>2011-03-25T15:55:56Z</time>
      </trkpt>
      <trkpt lat="43.4925" lon="5.94937">
        <ele>266.299988</ele>
        <time>2011-03-25T15:56:05Z</time>
      </trkpt>
      <trkpt lat="43.49241" lon="5.94939">
        <ele>266.399994</ele>
        <time>2011-03-25T15:56:13Z</time>
      </trkpt>
      <trkpt lat="43.49233" lon="5.94938">
        <ele>265.799988</ele>
        <time>2011-03-25T15:56:20Z</time>
      </trkpt>
      <trkpt lat="43.49225" lon="5.94938">
        <ele>266</ele>
        <time>2011-03-25T15:56:28Z</time>
      </trkpt>
      <trkpt lat="43.49224" lon="5.94938">
        <ele>266</ele>
        <time>2011-03-25T15:56:29Z</time>
      </trkpt>
      <trkpt lat="43.49209" lon="5.94937">
        <ele>266.600006</ele>
        <time>2011-03-25T15:56:43Z</time>
      </trkpt>
      <trkpt lat="43.49201" lon="5.94938">
        <ele>266.5</ele>
        <time>2011-03-25T15:56:52Z</time>
      </trkpt>
      <trkpt lat="43.49193" lon="5.94942">
        <ele>266.5</ele>
        <time>2011-03-25T15:56:59Z</time>
      </trkpt>
      <trkpt lat="43.49186" lon="5.94947">
        <ele>266.399994</ele>
        <time>2011-03-25T15:57:05Z</time>
      </trkpt>
      <trkpt lat="43.49179" lon="5.94954">
        <ele>266.799988</ele>
        <time>2011-03-25T15:57:11Z</time>
      </trkpt>
      <trkpt lat="43.49171" lon="5.94957">
        <ele>266.799988</ele>
        <time>2011-03-25T15:57:18Z</time>
      </trkpt>
      <trkpt lat="43.49162" lon="5.94959">
        <ele>266.799988</ele>
        <time>2011-03-25T15:57:27Z</time>
      </trkpt>
      <trkpt lat="43.49153" lon="5.94962">
        <ele>266.700012</ele>
        <time>2011-03-25T15:57:35Z</time>
      </trkpt>
      <trkpt lat="43.49152" lon="5.94962">
        <ele>266.600006</ele>
        <time>2011-03-25T15:57:36Z</time>
      </trkpt>
      <trkpt lat="43.49137" lon="5.9496">
        <ele>267</ele>
        <time>2011-03-25T15:57:50Z</time>
      </trkpt>
      <trkpt lat="43.49128" lon="5.9496">
        <ele>266.700012</ele>
        <time>2011-03-25T15:57:59Z</time>
      </trkpt>
      <trkpt lat="43.4912" lon="5.94962">
        <ele>266.399994</ele>
        <time>2011-03-25T15:58:07Z</time>
      </trkpt>
      <trkpt lat="43.49112" lon="5.9496">
        <ele>266.299988</ele>
        <time>2011-03-25T15:58:15Z</time>
      </trkpt>
      <trkpt lat="43.49103" lon="5.94961">
        <ele>266.600006</ele>
        <time>2011-03-25T15:58:23Z</time>
      </trkpt>
      <trkpt lat="43.49095" lon="5.9496">
        <ele>266.700012</ele>
        <time>2011-03-25T15:58:31Z</time>
      </trkpt>
      <trkpt lat="43.49086" lon="5.94957">
        <ele>266.299988</ele>
        <time>2011-03-25T15:58:39Z</time>
      </trkpt>
      <trkpt lat="43.49085" lon="5.94957">
        <ele>266.299988</ele>
        <time>2011-03-25T15:58:40Z</time>
      </trkpt>
      <trkpt lat="43.49069" lon="5.9496">
        <ele>266.399994</ele>
        <time>2011-03-25T15:58:56Z</time>
      </trkpt>
      <trkpt lat="43.49061" lon="5.94966">
        <ele>265.899994</ele>
        <time>2011-03-25T15:59:06Z</time>
      </trkpt>
      <trkpt lat="43.49053" lon="5.94971">
        <ele>265.899994</ele>
        <time>2011-03-25T15:59:15Z</time>
      </trkpt>
      <trkpt lat="43.49046" lon="5.94976">
        <ele>266.200012</ele>
        <time>2011-03-25T15:59:26Z</time>
      </trkpt>
      <trkpt lat="43.49038" lon="5.94982">
        <ele>267.100006</ele>
        <time>2011-03-25T15:59:36Z</time>
      </trkpt>
      <trkpt lat="43.4903" lon="5.94986">
        <ele>267.100006</ele>
        <time>2011-03-25T15:59:44Z</time>
      </trkpt>
      <trkpt lat="43.4903" lon="5.94986">
        <ele>267</ele>
        <time>2011-03-25T15:59:45Z</time>
      </trkpt>
      <trkpt lat="43.49014" lon="5.94994">
        <ele>266.600006</ele>
        <time>2011-03-25T16:00:00Z</time>
      </trkpt>
      <trkpt lat="43.49006" lon="5.9499">
        <ele>267.100006</ele>
        <time>2011-03-25T16:00:07Z</time>
      </trkpt>
      <trkpt lat="43.48998" lon="5.94992">
        <ele>267.100006</ele>
        <time>2011-03-25T16:00:14Z</time>
      </trkpt>
      <trkpt lat="43.48989" lon="5.94995">
        <ele>267.399994</ele>
        <time>2011-03-25T16:00:22Z</time>
      </trkpt>
      <trkpt lat="43.48981" lon="5.94997">
        <ele>267.299988</ele>
        <time>2011-03-25T16:00:32Z</time>
      </trkpt>
      <trkpt lat="43.48972" lon="5.94997">
        <ele>267.399994</ele>
        <time>2011-03-25T16:00:43Z</time>
      </trkpt>
      <trkpt lat="43.48964" lon="5.95002">
        <ele>267.299988</ele>
        <time>2011-03-25T16:00:55Z</time>
      </trkpt>
      <trkpt lat="43.48964" lon="5.95002">
        <ele>267.200012</ele>
        <time>2011-03-25T16:00:56Z</time>
      </trkpt>
      <trkpt lat="43.48948" lon="5.95007">
        <ele>267.200012</ele>
        <time>2011-03-25T16:01:11Z</time>
      </trkpt>
      <trkpt lat="43.4894" lon="5.95007">
        <ele>267.200012</ele>
        <time>2011-03-25T16:01:19Z</time>
      </trkpt>
      <trkpt lat="43.48931" lon="5.9501">
        <ele>267</ele>
        <time>2011-03-25T16:01:28Z</time>
      </trkpt>
      <trkpt lat="43.48923" lon="5.95011">
        <ele>267</ele>
        <time>2011-03-25T16:01:38Z</time>
      </trkpt>
      <trkpt lat="43.48914" lon="5.95013">
        <ele>266.799988</ele>
        <time>2011-03-25T16:01:47Z</time>
      </trkpt>
      <trkpt lat="43.48906" lon="5.95014">
        <ele>266.899994</ele>
        <time>2011-03-25T16:01:56Z</time>
      </trkpt>
      <trkpt lat="43.48905" lon="5.95014">
        <ele>267.100006</ele>
        <time>2011-03-25T16:01:57Z</time>
      </trkpt>
      <trkpt lat="43.4889" lon="5.95018">
        <ele>266.899994</ele>
        <time>2011-03-25T16:02:14Z</time>
      </trkpt>
      <trkpt lat="43.48882" lon="5.9502">
        <ele>267</ele>
        <time>2011-03-25T16:02:22Z</time>
      </trkpt>
      <trkpt lat="43.48874" lon="5.95021">
        <ele>266.899994</ele>
        <time>2011-03-25T16:02:31Z</time>
      </trkpt>
      <trkpt lat="43.48865" lon="5.95023">
        <ele>267</ele>
        <time>2011-03-25T16:02:41Z</time>
      </trkpt>
      <trkpt lat="43.48857" lon="5.95021">
        <ele>267.600006</ele>
        <time>2011-03-25T16:04:06Z</time>
      </trkpt>
      <trkpt lat="43.48856" lon="5.95021">
        <ele>267.600006</ele>
        <time>2011-03-25T16:04:07Z</time>
      </trkpt>
      <trkpt lat="43.48841" lon="5.95026">
        <ele>267.5</ele>
        <time>2011-03-25T16:04:32Z</time>
      </trkpt>
      <trkpt lat="43.48832" lon="5.95027">
        <ele>267.200012</ele>
        <time>2011-03-25T16:04:41Z</time>
      </trkpt>
      <trkpt lat="43.48824" lon="5.95029">
        <ele>267.200012</ele>
        <time>2011-03-25T16:04:51Z</time>
      </trkpt>
      <trkpt lat="43.48816" lon="5.95031">
        <ele>267.200012</ele>
        <time>2011-03-25T16:04:58Z</time>
      </trkpt>
      <trkpt lat="43.48808" lon="5.95033">
        <ele>267.200012</ele>
        <time>2011-03-25T16:05:05Z</time>
      </trkpt>
      <trkpt lat="43.48801" lon="5.95034">
        <ele>267.200012</ele>
        <time>2011-03-25T16:05:12Z</time>
      </trkpt>
      <trkpt lat="43.48799" lon="5.95035">
        <ele>267</ele>
        <time>2011-03-25T16:05:13Z</time>
      </trkpt>
      <trkpt lat="43.48783" lon="5.95036">
        <ele>267.200012</ele>
        <time>2011-03-25T16:05:30Z</time>
      </trkpt>
      <trkpt lat="43.48775" lon="5.95038">
        <ele>267.200012</ele>
        <time>2011-03-25T16:05:41Z</time>
      </trkpt>
      <trkpt lat="43.48767" lon="5.95039">
        <ele>267.200012</ele>
        <time>2011-03-25T16:05:48Z</time>
      </trkpt>
      <trkpt lat="43.48759" lon="5.95039">
        <ele>267.100006</ele>
        <time>2011-03-25T16:05:55Z</time>
      </trkpt>
      <trkpt lat="43.4875" lon="5.95041">
        <ele>267.299988</ele>
        <time>2011-03-25T16:06:02Z</time>
      </trkpt>
      <trkpt lat="43.48742" lon="5.95041">
        <ele>267.299988</ele>
        <time>2011-03-25T16:06:10Z</time>
      </trkpt>
      <trkpt lat="43.48733" lon="5.95042">
        <ele>267.299988</ele>
        <time>2011-03-25T16:06:17Z</time>
      </trkpt>
      <trkpt lat="43.48732" lon="5.95042">
        <ele>267.200012</ele>
        <time>2011-03-25T16:06:18Z</time>
      </trkpt>
      <trkpt lat="43.48717" lon="5.95047">
        <ele>266.899994</ele>
        <time>2011-03-25T16:06:35Z</time>
      </trkpt>
      <trkpt lat="43.48708" lon="5.95049">
        <ele>267</ele>
        <time>2011-03-25T16:06:43Z</time>
      </trkpt>
      <trkpt lat="43.487" lon="5.95051">
        <ele>267.5</ele>
        <time>2011-03-25T16:06:50Z</time>
      </trkpt>
      <trkpt lat="43.48691" lon="5.95053">
        <ele>267.100006</ele>
        <time>2011-03-25T16:06:57Z</time>
      </trkpt>
      <trkpt lat="43.48683" lon="5.95054">
        <ele>266.899994</ele>
        <time>2011-03-25T16:07:05Z</time>
      </trkpt>
      <trkpt lat="43.48675" lon="5.95056">
        <ele>266.899994</ele>
        <time>2011-03-25T16:07:12Z</time>
      </trkpt>
      <trkpt lat="43.48667" lon="5.95056">
        <ele>267.100006</ele>
        <time>2011-03-25T16:07:20Z</time>
      </trkpt>
      <trkpt lat="43.48666" lon="5.95056">
        <ele>267.100006</ele>
        <time>2011-03-25T16:07:21Z</time>
      </trkpt>
      <trkpt lat="43.48651" lon="5.95061">
        <ele>267.299988</ele>
        <time>2011-03-25T16:07:35Z</time>
      </trkpt>
      <trkpt lat="43.48643" lon="5.95062">
        <ele>267.399994</ele>
        <time>2011-03-25T16:07:42Z</time>
      </trkpt>
      <trkpt lat="43.48635" lon="5.95062">
        <ele>267.600006</ele>
        <time>2011-03-25T16:07:49Z</time>
      </trkpt>
      <trkpt lat="43.48627" lon="5.95064">
        <ele>267.200012</ele>
        <time>2011-03-25T16:07:58Z</time>
      </trkpt>
      <trkpt lat="43.48618" lon="5.95064">
        <ele>267.200012</ele>
        <time>2011-03-25T16:08:05Z</time>
      </trkpt>
      <trkpt lat="43.48611" lon="5.95063">
        <ele>267.299988</ele>
        <time>2011-03-25T16:08:12Z</time>
      </trkpt>
      <trkpt lat="43.48603" lon="5.95065">
        <ele>267.799988</ele>
        <time>2011-03-25T16:08:19Z</time>
      </trkpt>
      <trkpt lat="43.48594" lon="5.95066">
        <ele>267.700012</ele>
        <time>2011-03-25T16:08:28Z</time>
      </trkpt>
      <trkpt lat="43.48593" lon="5.95065">
        <ele>267.799988</ele>
        <time>2011-03-25T16:08:29Z</time>
      </trkpt>
      <trkpt lat="43.48577" lon="5.95065">
        <ele>268.5</ele>
        <time>2011-03-25T16:08:44Z</time>
      </trkpt>
      <trkpt lat="43.48569" lon="5.95068">
        <ele>268.600006</ele>
        <time>2011-03-25T16:08:52Z</time>
      </trkpt>
      <trkpt lat="43.48561" lon="5.95068">
        <ele>268.799988</ele>
        <time>2011-03-25T16:09:00Z</time>
      </trkpt>
      <trkpt lat="43.48553" lon="5.95068">
        <ele>269.100006</ele>
        <time>2011-03-25T16:09:07Z</time>
      </trkpt>
      <trkpt lat="43.48544" lon="5.95066">
        <ele>268.700012</ele>
        <time>2011-03-25T16:09:16Z</time>
      </trkpt>
      <trkpt lat="43.48536" lon="5.95067">
        <ele>268.700012</ele>
        <time>2011-03-25T16:09:26Z</time>
      </trkpt>
      <trkpt lat="43.48528" lon="5.95063">
        <ele>269.100006</ele>
        <time>2011-03-25T16:09:34Z</time>
      </trkpt>
      <trkpt lat="43.48527" lon="5.95063">
        <ele>269</ele>
        <time>2011-03-25T16:09:35Z</time>
      </trkpt>
      <trkpt lat="43.48512" lon="5.95063">
        <ele>269.200012</ele>
        <time>2011-03-25T16:09:49Z</time>
      </trkpt>
      <trkpt lat="43.48504" lon="5.95065">
        <ele>269</ele>
        <time>2011-03-25T16:09:58Z</time>
      </trkpt>
      <trkpt lat="43.48496" lon="5.95066">
        <ele>268.5</ele>
        <time>2011-03-25T16:10:06Z</time>
      </trkpt>
      <trkpt lat="43.48487" lon="5.95066">
        <ele>268.600006</ele>
        <time>2011-03-25T16:10:13Z</time>
      </trkpt>
      <trkpt lat="43.48479" lon="5.95066">
        <ele>268</ele>
        <time>2011-03-25T16:10:19Z</time>
      </trkpt>
      <trkpt lat="43.48472" lon="5.95065">
        <ele>267.299988</ele>
        <time>2011-03-25T16:10:28Z</time>
      </trkpt>
      <trkpt lat="43.48464" lon="5.95064">
        <ele>267.700012</ele>
        <time>2011-03-25T16:10:34Z</time>
      </trkpt>
      <trkpt lat="43.48455" lon="5.95064">
        <ele>267.700012</ele>
        <time>2011-03-25T16:10:42Z</time>
      </trkpt>
      <trkpt lat="43.48454" lon="5.95064">
        <ele>267.399994</ele>
        <time>2011-03-25T16:10:43Z</time>
      </trkpt>
      <trkpt lat="43.48438" lon="5.95062">
        <ele>267.299988</ele>
        <time>2011-03-25T16:10:59Z</time>
      </trkpt>
      <trkpt lat="43.48429" lon="5.9506">
        <ele>267</ele>
        <time>2011-03-25T16:11:06Z</time>
      </trkpt>
      <trkpt lat="43.48421" lon="5.95056">
        <ele>267.100006</ele>
        <time>2011-03-25T16:11:13Z</time>
      </trkpt>
      <trkpt lat="43.48413" lon="5.95053">
        <ele>267.299988</ele>
        <time>2011-03-25T16:11:19Z</time>
      </trkpt>
      <trkpt lat="43.48405" lon="5.95051">
        <ele>267.200012</ele>
        <time>2011-03-25T16:11:27Z</time>
      </trkpt>
      <trkpt lat="43.48397" lon="5.95049">
        <ele>267</ele>
        <time>2011-03-25T16:11:35Z</time>
      </trkpt>
      <trkpt lat="43.48388" lon="5.95049">
        <ele>267.299988</ele>
        <time>2011-03-25T16:11:42Z</time>
      </trkpt>
      <trkpt lat="43.48379" lon="5.95052">
        <ele>267.299988</ele>
        <time>2011-03-25T16:11:52Z</time>
      </trkpt>
      <trkpt lat="43.48378" lon="5.95052">
        <ele>267.200012</ele>
        <time>2011-03-25T16:11:53Z</time>
      </trkpt>
      <trkpt lat="43.48363" lon="5.9506">
        <ele>267.299988</ele>
        <time>2011-03-25T16:12:09Z</time>
      </trkpt>
      <trkpt lat="43.48356" lon="5.95066">
        <ele>267.299988</ele>
        <time>2011-03-25T16:12:15Z</time>
      </trkpt>
      <trkpt lat="43.48348" lon="5.9507">
        <ele>267.299988</ele>
        <time>2011-03-25T16:12:21Z</time>
      </trkpt>
      <trkpt lat="43.4834" lon="5.95073">
        <ele>267.5</ele>
        <time>2011-03-25T16:12:28Z</time>
      </trkpt>
      <trkpt lat="43.48332" lon="5.95074">
        <ele>267.299988</ele>
        <time>2011-03-25T16:12:34Z</time>
      </trkpt>
      <trkpt lat="43.48324" lon="5.95073">
        <ele>267.399994</ele>
        <time>2011-03-25T16:12:41Z</time>
      </trkpt>
      <trkpt lat="43.48315" lon="5.9507">
        <ele>267.600006</ele>
        <time>2011-03-25T16:12:49Z</time>
      </trkpt>
      <trkpt lat="43.48308" lon="5.95065">
        <ele>267.799988</ele>
        <time>2011-03-25T16:12:56Z</time>
      </trkpt>
      <trkpt lat="43.48307" lon="5.95064">
        <ele>267.799988</ele>
        <time>2011-03-25T16:12:57Z</time>
      </trkpt>
      <trkpt lat="43.48292" lon="5.95055">
        <ele>268.100006</ele>
        <time>2011-03-25T16:13:12Z</time>
      </trkpt>
      <trkpt lat="43.48284" lon="5.95057">
        <ele>268</ele>
        <time>2011-03-25T16:13:18Z</time>
      </trkpt>
      <trkpt lat="43.48276" lon="5.95058">
        <ele>268.299988</ele>
        <time>2011-03-25T16:13:25Z</time>
      </trkpt>
      <trkpt lat="43.48268" lon="5.95062">
        <ele>268.100006</ele>
        <time>2011-03-25T16:13:32Z</time>
      </trkpt>
      <trkpt lat="43.4826" lon="5.95066">
        <ele>268.299988</ele>
        <time>2011-03-25T16:13:39Z</time>
      </trkpt>
      <trkpt lat="43.48253" lon="5.9507">
        <ele>268.200012</ele>
        <time>2011-03-25T16:13:46Z</time>
      </trkpt>
      <trkpt lat="43.48244" lon="5.95073">
        <ele>268.399994</ele>
        <time>2011-03-25T16:13:54Z</time>
      </trkpt>
      <trkpt lat="43.48236" lon="5.95077">
        <ele>268.600006</ele>
        <time>2011-03-25T16:14:01Z</time>
      </trkpt>
      <trkpt lat="43.48235" lon="5.95077">
        <ele>268.700012</ele>
        <time>2011-03-25T16:14:02Z</time>
      </trkpt>
      <trkpt lat="43.4822" lon="5.95082">
        <ele>268.299988</ele>
        <time>2011-03-25T16:14:17Z</time>
      </trkpt>
      <trkpt lat="43.48213" lon="5.95087">
        <ele>268.399994</ele>
        <time>2011-03-25T16:14:23Z</time>
      </trkpt>
      <trkpt lat="43.48205" lon="5.95091">
        <ele>268.799988</ele>
        <time>2011-03-25T16:14:30Z</time>
      </trkpt>
      <trkpt lat="43.48197" lon="5.95094">
        <ele>268.700012</ele>
        <time>2011-03-25T16:14:38Z</time>
      </trkpt>
      <trkpt lat="43.48189" lon="5.95094">
        <ele>268.799988</ele>
        <time>2011-03-25T16:14:44Z</time>
      </trkpt>
      <trkpt lat="43.48181" lon="5.95092">
        <ele>268.899994</ele>
        <time>2011-03-25T16:14:51Z</time>
      </trkpt>
      <trkpt lat="43.48173" lon="5.95091">
        <ele>269</ele>
        <time>2011-03-25T16:14:58Z</time>
      </trkpt>
      <trkpt lat="43.48166" lon="5.95088">
        <ele>268.600006</ele>
        <time>2011-03-25T16:15:04Z</time>
      </trkpt>
      <trkpt lat="43.48165" lon="5.95088">
        <ele>268.600006</ele>
        <time>2011-03-25T16:15:05Z</time>
      </trkpt>
      <trkpt lat="43.4815" lon="5.95082">
        <ele>268.899994</ele>
        <time>2011-03-25T16:15:19Z</time>
      </trkpt>
      <trkpt lat="43.48142" lon="5.95081">
        <ele>269.200012</ele>
        <time>2011-03-25T16:15:26Z</time>
      </trkpt>
      <trkpt lat="43.48134" lon="5.95083">
        <ele>268.700012</ele>
        <time>2011-03-25T16:15:32Z</time>
      </trkpt>
      <trkpt lat="43.48127" lon="5.95087">
        <ele>269.100006</ele>
        <time>2011-03-25T16:15:40Z</time>
      </trkpt>
      <trkpt lat="43.4812" lon="5.95094">
        <ele>269.100006</ele>
        <time>2011-03-25T16:15:47Z</time>
      </trkpt>
      <trkpt lat="43.48112" lon="5.951">
        <ele>269.200012</ele>
        <time>2011-03-25T16:15:54Z</time>
      </trkpt>
      <trkpt lat="43.48105" lon="5.95104">
        <ele>269.799988</ele>
        <time>2011-03-25T16:16:00Z</time>
      </trkpt>
      <trkpt lat="43.48098" lon="5.95106">
        <ele>270.700012</ele>
        <time>2011-03-25T16:16:06Z</time>
      </trkpt>
      <trkpt lat="43.48097" lon="5.95107">
        <ele>270.700012</ele>
        <time>2011-03-25T16:16:07Z</time>
      </trkpt>
      <trkpt lat="43.48083" lon="5.9511">
        <ele>270.5</ele>
        <time>2011-03-25T16:16:20Z</time>
      </trkpt>
      <trkpt lat="43.48074" lon="5.95112">
        <ele>270.700012</ele>
        <time>2011-03-25T16:16:27Z</time>
      </trkpt>
      <trkpt lat="43.48066" lon="5.95114">
        <ele>270.899994</ele>
        <time>2011-03-25T16:16:35Z</time>
      </trkpt>
      <trkpt lat="43.48057" lon="5.95115">
        <ele>270.700012</ele>
        <time>2011-03-25T16:16:42Z</time>
      </trkpt>
      <trkpt lat="43.48049" lon="5.95118">
        <ele>270.600006</ele>
        <time>2011-03-25T16:16:49Z</time>
      </trkpt>
      <trkpt lat="43.4804" lon="5.95119">
        <ele>270.799988</ele>
        <time>2011-03-25T16:16:56Z</time>
      </trkpt>
      <trkpt lat="43.48032" lon="5.95119">
        <ele>270.5</ele>
        <time>2011-03-25T16:17:03Z</time>
      </trkpt>
      <trkpt lat="43.48024" lon="5.95121">
        <ele>270.899994</ele>
        <time>2011-03-25T16:17:21Z</time>
      </trkpt>
      <trkpt lat="43.48024" lon="5.95122">
        <ele>270.799988</ele>
        <time>2011-03-25T16:17:22Z</time>
      </trkpt>
      <trkpt lat="43.48017" lon="5.95112">
        <ele>270.799988</ele>
        <time>2011-03-25T16:21:26Z</time>
      </trkpt>
      <trkpt lat="43.48017" lon="5.95117">
        <ele>270.899994</ele>
        <time>2011-03-25T16:23:30Z</time>
      </trkpt>
      <trkpt lat="43.48016" lon="5.95117">
        <ele>270.799988</ele>
        <time>2011-03-25T16:23:31Z</time>
      </trkpt>
      <trkpt lat="43.48001" lon="5.95111">
        <ele>271.100006</ele>
        <time>2011-03-25T16:23:49Z</time>
      </trkpt>
      <trkpt lat="43.47994" lon="5.95104">
        <ele>271.200012</ele>
        <time>2011-03-25T16:23:58Z</time>
      </trkpt>
      <trkpt lat="43.47987" lon="5.95097">
        <ele>271.100006</ele>
        <time>2011-03-25T16:24:07Z</time>
      </trkpt>
      <trkpt lat="43.4798" lon="5.95091">
        <ele>271.5</ele>
        <time>2011-03-25T16:24:14Z</time>
      </trkpt>
      <trkpt lat="43.47972" lon="5.95086">
        <ele>271.100006</ele>
        <time>2011-03-25T16:24:22Z</time>
      </trkpt>
      <trkpt lat="43.47964" lon="5.95081">
        <ele>271.299988</ele>
        <time>2011-03-25T16:24:31Z</time>
      </trkpt>
      <trkpt lat="43.47963" lon="5.95081">
        <ele>271.299988</ele>
        <time>2011-03-25T16:24:32Z</time>
      </trkpt>
      <trkpt lat="43.4795" lon="5.95072">
        <ele>271.5</ele>
        <time>2011-03-25T16:24:47Z</time>
      </trkpt>
      <trkpt lat="43.47942" lon="5.9507">
        <ele>271.799988</ele>
        <time>2011-03-25T16:24:55Z</time>
      </trkpt>
      <trkpt lat="43.47934" lon="5.95069">
        <ele>271.899994</ele>
        <time>2011-03-25T16:25:03Z</time>
      </trkpt>
      <trkpt lat="43.47925" lon="5.9507">
        <ele>271.899994</ele>
        <time>2011-03-25T16:25:10Z</time>
      </trkpt>
      <trkpt lat="43.47916" lon="5.95073">
        <ele>271.700012</ele>
        <time>2011-03-25T16:25:16Z</time>
      </trkpt>
      <trkpt lat="43.47908" lon="5.95073">
        <ele>271.799988</ele>
        <time>2011-03-25T16:25:22Z</time>
      </trkpt>
      <trkpt lat="43.479" lon="5.95072">
        <ele>271.200012</ele>
        <time>2011-03-25T16:25:29Z</time>
      </trkpt>
      <trkpt lat="43.47892" lon="5.95068">
        <ele>271.5</ele>
        <time>2011-03-25T16:25:36Z</time>
      </trkpt>
      <trkpt lat="43.47891" lon="5.95067">
        <ele>271.5</ele>
        <time>2011-03-25T16:25:37Z</time>
      </trkpt>
      <trkpt lat="43.47875" lon="5.95062">
        <ele>271.100006</ele>
        <time>2011-03-25T16:25:53Z</time>
      </trkpt>
      <trkpt lat="43.47867" lon="5.95061">
        <ele>271.200012</ele>
        <time>2011-03-25T16:26:01Z</time>
      </trkpt>
      <trkpt lat="43.4786" lon="5.95067">
        <ele>271.200012</ele>
        <time>2011-03-25T16:26:07Z</time>
      </trkpt>
      <trkpt lat="43.47858" lon="5.95078">
        <ele>271.399994</ele>
        <time>2011-03-25T16:26:15Z</time>
      </trkpt>
      <trkpt lat="43.47859" lon="5.9509">
        <ele>271.5</ele>
        <time>2011-03-25T16:26:22Z</time>
      </trkpt>
      <trkpt lat="43.47858" lon="5.95101">
        <ele>271.299988</ele>
        <time>2011-03-25T16:26:30Z</time>
      </trkpt>
      <trkpt lat="43.47858" lon="5.95113">
        <ele>271</ele>
        <time>2011-03-25T16:26:38Z</time>
      </trkpt>
      <trkpt lat="43.47858" lon="5.95114">
        <ele>271</ele>
        <time>2011-03-25T16:26:39Z</time>
      </trkpt>
      <trkpt lat="43.47852" lon="5.95134">
        <ele>271.299988</ele>
        <time>2011-03-25T16:26:50Z</time>
      </trkpt>
      <trkpt lat="43.47852" lon="5.95145">
        <ele>271.299988</ele>
        <time>2011-03-25T16:26:58Z</time>
      </trkpt>
      <trkpt lat="43.4785" lon="5.95155">
        <ele>271.100006</ele>
        <time>2011-03-25T16:27:06Z</time>
      </trkpt>
      <trkpt lat="43.47847" lon="5.95167">
        <ele>271.600006</ele>
        <time>2011-03-25T16:27:12Z</time>
      </trkpt>
      <trkpt lat="43.47846" lon="5.95178">
        <ele>271.600006</ele>
        <time>2011-03-25T16:27:18Z</time>
      </trkpt>
      <trkpt lat="43.47843" lon="5.9519">
        <ele>271</ele>
        <time>2011-03-25T16:27:25Z</time>
      </trkpt>
      <trkpt lat="43.47843" lon="5.95202">
        <ele>271.200012</ele>
        <time>2011-03-25T16:27:34Z</time>
      </trkpt>
      <trkpt lat="43.4784" lon="5.95213">
        <ele>271.100006</ele>
        <time>2011-03-25T16:27:41Z</time>
      </trkpt>
      <trkpt lat="43.4784" lon="5.95215">
        <ele>271.200012</ele>
        <time>2011-03-25T16:27:42Z</time>
      </trkpt>
      <trkpt lat="43.47832" lon="5.95233">
        <ele>271.299988</ele>
        <time>2011-03-25T16:27:55Z</time>
      </trkpt>
      <trkpt lat="43.47829" lon="5.95243">
        <ele>271.299988</ele>
        <time>2011-03-25T16:28:03Z</time>
      </trkpt>
      <trkpt lat="43.47824" lon="5.95252">
        <ele>271.299988</ele>
        <time>2011-03-25T16:28:10Z</time>
      </trkpt>
      <trkpt lat="43.47818" lon="5.95261">
        <ele>271.399994</ele>
        <time>2011-03-25T16:28:18Z</time>
      </trkpt>
      <trkpt lat="43.47811" lon="5.95268">
        <ele>271.600006</ele>
        <time>2011-03-25T16:28:25Z</time>
      </trkpt>
      <trkpt lat="43.47804" lon="5.95273">
        <ele>271.700012</ele>
        <time>2011-03-25T16:28:31Z</time>
      </trkpt>
      <trkpt lat="43.47798" lon="5.9528">
        <ele>271.700012</ele>
        <time>2011-03-25T16:28:37Z</time>
      </trkpt>
      <trkpt lat="43.4779" lon="5.95284">
        <ele>271.399994</ele>
        <time>2011-03-25T16:28:44Z</time>
      </trkpt>
      <trkpt lat="43.47789" lon="5.95285">
        <ele>271.399994</ele>
        <time>2011-03-25T16:28:45Z</time>
      </trkpt>
      <trkpt lat="43.47776" lon="5.95291">
        <ele>271.399994</ele>
        <time>2011-03-25T16:28:57Z</time>
      </trkpt>
      <trkpt lat="43.47768" lon="5.95297">
        <ele>271.600006</ele>
        <time>2011-03-25T16:29:04Z</time>
      </trkpt>
      <trkpt lat="43.47761" lon="5.95303">
        <ele>271.399994</ele>
        <time>2011-03-25T16:29:11Z</time>
      </trkpt>
      <trkpt lat="43.47753" lon="5.95306">
        <ele>271.899994</ele>
        <time>2011-03-25T16:29:18Z</time>
      </trkpt>
      <trkpt lat="43.47745" lon="5.9531">
        <ele>272.5</ele>
        <time>2011-03-25T16:29:25Z</time>
      </trkpt>
      <trkpt lat="43.47737" lon="5.95315">
        <ele>272.299988</ele>
        <time>2011-03-25T16:29:32Z</time>
      </trkpt>
      <trkpt lat="43.47729" lon="5.95318">
        <ele>272.600006</ele>
        <time>2011-03-25T16:29:39Z</time>
      </trkpt>
      <trkpt lat="43.47721" lon="5.95321">
        <ele>273.100006</ele>
        <time>2011-03-25T16:29:46Z</time>
      </trkpt>
      <trkpt lat="43.4772" lon="5.95322">
        <ele>273.100006</ele>
        <time>2011-03-25T16:29:47Z</time>
      </trkpt>
      <trkpt lat="43.47705" lon="5.95329">
        <ele>272.899994</ele>
        <time>2011-03-25T16:30:00Z</time>
      </trkpt>
      <trkpt lat="43.47697" lon="5.95332">
        <ele>272.600006</ele>
        <time>2011-03-25T16:30:06Z</time>
      </trkpt>
      <trkpt lat="43.4769" lon="5.95337">
        <ele>273.100006</ele>
        <time>2011-03-25T16:30:12Z</time>
      </trkpt>
      <trkpt lat="43.47683" lon="5.95343">
        <ele>272.899994</ele>
        <time>2011-03-25T16:30:20Z</time>
      </trkpt>
      <trkpt lat="43.47674" lon="5.95346">
        <ele>272.799988</ele>
        <time>2011-03-25T16:30:28Z</time>
      </trkpt>
      <trkpt lat="43.47666" lon="5.9535">
        <ele>273</ele>
        <time>2011-03-25T16:30:36Z</time>
      </trkpt>
      <trkpt lat="43.47659" lon="5.95356">
        <ele>273.200012</ele>
        <time>2011-03-25T16:30:43Z</time>
      </trkpt>
      <trkpt lat="43.47651" lon="5.95359">
        <ele>272.899994</ele>
        <time>2011-03-25T16:30:52Z</time>
      </trkpt>
      <trkpt lat="43.4765" lon="5.9536">
        <ele>272.899994</ele>
        <time>2011-03-25T16:30:53Z</time>
      </trkpt>
      <trkpt lat="43.47636" lon="5.95367">
        <ele>273.600006</ele>
        <time>2011-03-25T16:31:05Z</time>
      </trkpt>
      <trkpt lat="43.47629" lon="5.95373">
        <ele>273.5</ele>
        <time>2011-03-25T16:31:11Z</time>
      </trkpt>
      <trkpt lat="43.47621" lon="5.95377">
        <ele>273.5</ele>
        <time>2011-03-25T16:31:17Z</time>
      </trkpt>
      <trkpt lat="43.47614" lon="5.95381">
        <ele>274</ele>
        <time>2011-03-25T16:31:24Z</time>
      </trkpt>
      <trkpt lat="43.47606" lon="5.95385">
        <ele>273.700012</ele>
        <time>2011-03-25T16:31:32Z</time>
      </trkpt>
      <trkpt lat="43.47598" lon="5.9539">
        <ele>274</ele>
        <time>2011-03-25T16:31:40Z</time>
      </trkpt>
      <trkpt lat="43.47589" lon="5.95394">
        <ele>274.299988</ele>
        <time>2011-03-25T16:31:51Z</time>
      </trkpt>
      <trkpt lat="43.47582" lon="5.95398">
        <ele>274.799988</ele>
        <time>2011-03-25T16:31:59Z</time>
      </trkpt>
      <trkpt lat="43.47581" lon="5.95399">
        <ele>274.799988</ele>
        <time>2011-03-25T16:32:00Z</time>
      </trkpt>
    </trkseg>
  </trk>
</gpx>